<?xml version="1.0" encoding="UTF-8" standalone="no" ?>
<gpx xmlns="http://www.topografix.com/GPX/1/1" xmlns:xsi="http://www.w3.org/2001/XMLSchema-instance" xsi:schemaLocation="http://www.topografix.com/GPX/1/1 http://www.topografix.com/GPX/1/1/gpx.xsd" version="1.1" creator="VisuGPX - https://www.visugpx.com">
  <metadata>
    <name>Course à pied le matin</name>
  </metadata>
  <trk>
    <name><![CDATA[Course à pied le matin_1]]></name>
    <trkseg>
      <trkpt lat="43.64667" lon="1.37665">
        <ele>144</ele>
        <time>2025-04-12T07:41:34Z</time>
      </trkpt>
      <trkpt lat="43.64664" lon="1.37667">
        <ele>144</ele>
        <time>2025-04-12T07:41:35Z</time>
      </trkpt>
      <trkpt lat="43.64664" lon="1.37667">
        <ele>144</ele>
        <time>2025-04-12T07:41:37Z</time>
      </trkpt>
      <trkpt lat="43.64653" lon="1.37674">
        <ele>144</ele>
        <time>2025-04-12T07:41:38Z</time>
      </trkpt>
      <trkpt lat="43.64651" lon="1.37675">
        <ele>144</ele>
        <time>2025-04-12T07:41:39Z</time>
      </trkpt>
      <trkpt lat="43.64649" lon="1.37676">
        <ele>144</ele>
        <time>2025-04-12T07:41:40Z</time>
      </trkpt>
      <trkpt lat="43.64647" lon="1.37676">
        <ele>144</ele>
        <time>2025-04-12T07:41:41Z</time>
      </trkpt>
      <trkpt lat="43.64645" lon="1.37676">
        <ele>144</ele>
        <time>2025-04-12T07:41:42Z</time>
      </trkpt>
      <trkpt lat="43.64643" lon="1.37677">
        <ele>144</ele>
        <time>2025-04-12T07:41:43Z</time>
      </trkpt>
      <trkpt lat="43.64641" lon="1.37677">
        <ele>144</ele>
        <time>2025-04-12T07:41:44Z</time>
      </trkpt>
      <trkpt lat="43.64639" lon="1.37678">
        <ele>144</ele>
        <time>2025-04-12T07:41:45Z</time>
      </trkpt>
      <trkpt lat="43.64636" lon="1.37679">
        <ele>144</ele>
        <time>2025-04-12T07:41:46Z</time>
      </trkpt>
      <trkpt lat="43.64634" lon="1.37681">
        <ele>144</ele>
        <time>2025-04-12T07:41:47Z</time>
      </trkpt>
      <trkpt lat="43.64632" lon="1.37681">
        <ele>144</ele>
        <time>2025-04-12T07:41:48Z</time>
      </trkpt>
      <trkpt lat="43.64629" lon="1.37682">
        <ele>144</ele>
        <time>2025-04-12T07:41:49Z</time>
      </trkpt>
      <trkpt lat="43.64629" lon="1.37682">
        <ele>144</ele>
        <time>2025-04-12T07:41:50Z</time>
      </trkpt>
      <trkpt lat="43.64625" lon="1.37685">
        <ele>144</ele>
        <time>2025-04-12T07:41:51Z</time>
      </trkpt>
      <trkpt lat="43.64624" lon="1.37686">
        <ele>144</ele>
        <time>2025-04-12T07:41:52Z</time>
      </trkpt>
      <trkpt lat="43.64622" lon="1.37687">
        <ele>144</ele>
        <time>2025-04-12T07:41:53Z</time>
      </trkpt>
      <trkpt lat="43.6462" lon="1.37688">
        <ele>144</ele>
        <time>2025-04-12T07:41:54Z</time>
      </trkpt>
      <trkpt lat="43.6462" lon="1.37688">
        <ele>144</ele>
        <time>2025-04-12T07:41:55Z</time>
      </trkpt>
      <trkpt lat="43.64618" lon="1.37689">
        <ele>144</ele>
        <time>2025-04-12T07:41:56Z</time>
      </trkpt>
      <trkpt lat="43.64616" lon="1.37689">
        <ele>144</ele>
        <time>2025-04-12T07:41:57Z</time>
      </trkpt>
      <trkpt lat="43.64614" lon="1.3769">
        <ele>144</ele>
        <time>2025-04-12T07:41:58Z</time>
      </trkpt>
      <trkpt lat="43.64611" lon="1.3769">
        <ele>144</ele>
        <time>2025-04-12T07:41:59Z</time>
      </trkpt>
      <trkpt lat="43.64611" lon="1.3769">
        <ele>144</ele>
        <time>2025-04-12T07:42:00Z</time>
      </trkpt>
      <trkpt lat="43.64608" lon="1.3769">
        <ele>144</ele>
        <time>2025-04-12T07:42:01Z</time>
      </trkpt>
      <trkpt lat="43.64608" lon="1.3769">
        <ele>144</ele>
        <time>2025-04-12T07:42:02Z</time>
      </trkpt>
      <trkpt lat="43.64605" lon="1.37691">
        <ele>144</ele>
        <time>2025-04-12T07:42:03Z</time>
      </trkpt>
      <trkpt lat="43.64605" lon="1.37691">
        <ele>144</ele>
        <time>2025-04-12T07:42:04Z</time>
      </trkpt>
      <trkpt lat="43.64599" lon="1.37692">
        <ele>145</ele>
        <time>2025-04-12T07:42:05Z</time>
      </trkpt>
      <trkpt lat="43.64598" lon="1.37692">
        <ele>145</ele>
        <time>2025-04-12T07:42:06Z</time>
      </trkpt>
      <trkpt lat="43.64598" lon="1.37692">
        <ele>145</ele>
        <time>2025-04-12T07:42:07Z</time>
      </trkpt>
      <trkpt lat="43.64593" lon="1.37692">
        <ele>145</ele>
        <time>2025-04-12T07:42:08Z</time>
      </trkpt>
      <trkpt lat="43.64592" lon="1.37692">
        <ele>145</ele>
        <time>2025-04-12T07:42:09Z</time>
      </trkpt>
      <trkpt lat="43.64592" lon="1.37692">
        <ele>145</ele>
        <time>2025-04-12T07:42:10Z</time>
      </trkpt>
      <trkpt lat="43.6459" lon="1.37691">
        <ele>145</ele>
        <time>2025-04-12T07:42:11Z</time>
      </trkpt>
      <trkpt lat="43.64588" lon="1.3769">
        <ele>145</ele>
        <time>2025-04-12T07:42:12Z</time>
      </trkpt>
      <trkpt lat="43.64586" lon="1.37689">
        <ele>145</ele>
        <time>2025-04-12T07:42:13Z</time>
      </trkpt>
      <trkpt lat="43.64585" lon="1.37687">
        <ele>145</ele>
        <time>2025-04-12T07:42:14Z</time>
      </trkpt>
      <trkpt lat="43.64583" lon="1.37686">
        <ele>145</ele>
        <time>2025-04-12T07:42:15Z</time>
      </trkpt>
      <trkpt lat="43.6458" lon="1.37685">
        <ele>145</ele>
        <time>2025-04-12T07:42:16Z</time>
      </trkpt>
      <trkpt lat="43.64578" lon="1.37685">
        <ele>145</ele>
        <time>2025-04-12T07:42:17Z</time>
      </trkpt>
      <trkpt lat="43.64576" lon="1.37684">
        <ele>145</ele>
        <time>2025-04-12T07:42:18Z</time>
      </trkpt>
      <trkpt lat="43.64573" lon="1.37683">
        <ele>146</ele>
        <time>2025-04-12T07:42:19Z</time>
      </trkpt>
      <trkpt lat="43.64571" lon="1.37682">
        <ele>146</ele>
        <time>2025-04-12T07:42:20Z</time>
      </trkpt>
      <trkpt lat="43.64568" lon="1.37681">
        <ele>146</ele>
        <time>2025-04-12T07:42:21Z</time>
      </trkpt>
      <trkpt lat="43.64566" lon="1.37681">
        <ele>146</ele>
        <time>2025-04-12T07:42:22Z</time>
      </trkpt>
      <trkpt lat="43.64563" lon="1.3768">
        <ele>146</ele>
        <time>2025-04-12T07:42:23Z</time>
      </trkpt>
      <trkpt lat="43.6456" lon="1.37678">
        <ele>146</ele>
        <time>2025-04-12T07:42:24Z</time>
      </trkpt>
      <trkpt lat="43.6456" lon="1.37678">
        <ele>146</ele>
        <time>2025-04-12T07:42:25Z</time>
      </trkpt>
      <trkpt lat="43.64555" lon="1.37674">
        <ele>146</ele>
        <time>2025-04-12T07:42:26Z</time>
      </trkpt>
      <trkpt lat="43.64554" lon="1.37673">
        <ele>146</ele>
        <time>2025-04-12T07:42:27Z</time>
      </trkpt>
      <trkpt lat="43.64554" lon="1.37673">
        <ele>145</ele>
        <time>2025-04-12T07:42:28Z</time>
      </trkpt>
      <trkpt lat="43.64549" lon="1.37671">
        <ele>145</ele>
        <time>2025-04-12T07:42:29Z</time>
      </trkpt>
      <trkpt lat="43.64549" lon="1.37671">
        <ele>145</ele>
        <time>2025-04-12T07:42:30Z</time>
      </trkpt>
      <trkpt lat="43.64543" lon="1.37667">
        <ele>145</ele>
        <time>2025-04-12T07:42:31Z</time>
      </trkpt>
      <trkpt lat="43.64542" lon="1.37667">
        <ele>145</ele>
        <time>2025-04-12T07:42:32Z</time>
      </trkpt>
      <trkpt lat="43.6454" lon="1.37667">
        <ele>145</ele>
        <time>2025-04-12T07:42:33Z</time>
      </trkpt>
      <trkpt lat="43.6454" lon="1.37667">
        <ele>145</ele>
        <time>2025-04-12T07:42:34Z</time>
      </trkpt>
      <trkpt lat="43.64534" lon="1.37668">
        <ele>145</ele>
        <time>2025-04-12T07:42:35Z</time>
      </trkpt>
      <trkpt lat="43.64533" lon="1.37669">
        <ele>145</ele>
        <time>2025-04-12T07:42:36Z</time>
      </trkpt>
      <trkpt lat="43.64531" lon="1.37669">
        <ele>145</ele>
        <time>2025-04-12T07:42:37Z</time>
      </trkpt>
      <trkpt lat="43.64531" lon="1.37669">
        <ele>145</ele>
        <time>2025-04-12T07:42:38Z</time>
      </trkpt>
      <trkpt lat="43.64525" lon="1.37672">
        <ele>145</ele>
        <time>2025-04-12T07:42:39Z</time>
      </trkpt>
      <trkpt lat="43.64523" lon="1.37673">
        <ele>145</ele>
        <time>2025-04-12T07:42:40Z</time>
      </trkpt>
      <trkpt lat="43.64523" lon="1.37673">
        <ele>145</ele>
        <time>2025-04-12T07:42:41Z</time>
      </trkpt>
      <trkpt lat="43.6452" lon="1.37678">
        <ele>145</ele>
        <time>2025-04-12T07:42:42Z</time>
      </trkpt>
      <trkpt lat="43.6452" lon="1.37679">
        <ele>145</ele>
        <time>2025-04-12T07:42:43Z</time>
      </trkpt>
      <trkpt lat="43.64518" lon="1.37682">
        <ele>144</ele>
        <time>2025-04-12T07:42:44Z</time>
      </trkpt>
      <trkpt lat="43.64517" lon="1.37684">
        <ele>144</ele>
        <time>2025-04-12T07:42:45Z</time>
      </trkpt>
      <trkpt lat="43.64516" lon="1.37687">
        <ele>145</ele>
        <time>2025-04-12T07:42:46Z</time>
      </trkpt>
      <trkpt lat="43.64515" lon="1.37689">
        <ele>145</ele>
        <time>2025-04-12T07:42:47Z</time>
      </trkpt>
      <trkpt lat="43.64513" lon="1.37692">
        <ele>145</ele>
        <time>2025-04-12T07:42:48Z</time>
      </trkpt>
      <trkpt lat="43.64512" lon="1.37695">
        <ele>145</ele>
        <time>2025-04-12T07:42:49Z</time>
      </trkpt>
      <trkpt lat="43.64512" lon="1.37695">
        <ele>145</ele>
        <time>2025-04-12T07:42:50Z</time>
      </trkpt>
      <trkpt lat="43.6451" lon="1.377">
        <ele>145</ele>
        <time>2025-04-12T07:42:51Z</time>
      </trkpt>
      <trkpt lat="43.6451" lon="1.377">
        <ele>145</ele>
        <time>2025-04-12T07:42:52Z</time>
      </trkpt>
      <trkpt lat="43.64509" lon="1.37704">
        <ele>145</ele>
        <time>2025-04-12T07:42:53Z</time>
      </trkpt>
      <trkpt lat="43.64508" lon="1.37708">
        <ele>145</ele>
        <time>2025-04-12T07:42:54Z</time>
      </trkpt>
      <trkpt lat="43.64507" lon="1.37711">
        <ele>145</ele>
        <time>2025-04-12T07:42:55Z</time>
      </trkpt>
      <trkpt lat="43.64505" lon="1.37715">
        <ele>145</ele>
        <time>2025-04-12T07:42:56Z</time>
      </trkpt>
      <trkpt lat="43.64504" lon="1.37718">
        <ele>145</ele>
        <time>2025-04-12T07:42:57Z</time>
      </trkpt>
      <trkpt lat="43.64503" lon="1.37722">
        <ele>145</ele>
        <time>2025-04-12T07:42:58Z</time>
      </trkpt>
      <trkpt lat="43.64501" lon="1.37725">
        <ele>145</ele>
        <time>2025-04-12T07:42:59Z</time>
      </trkpt>
      <trkpt lat="43.645" lon="1.37728">
        <ele>145</ele>
        <time>2025-04-12T07:43:00Z</time>
      </trkpt>
      <trkpt lat="43.64498" lon="1.37731">
        <ele>145</ele>
        <time>2025-04-12T07:43:01Z</time>
      </trkpt>
      <trkpt lat="43.64497" lon="1.37733">
        <ele>145</ele>
        <time>2025-04-12T07:43:02Z</time>
      </trkpt>
      <trkpt lat="43.64496" lon="1.37736">
        <ele>145</ele>
        <time>2025-04-12T07:43:03Z</time>
      </trkpt>
      <trkpt lat="43.64495" lon="1.37738">
        <ele>145</ele>
        <time>2025-04-12T07:43:04Z</time>
      </trkpt>
      <trkpt lat="43.64494" lon="1.37741">
        <ele>145</ele>
        <time>2025-04-12T07:43:05Z</time>
      </trkpt>
      <trkpt lat="43.64493" lon="1.37744">
        <ele>145</ele>
        <time>2025-04-12T07:43:06Z</time>
      </trkpt>
      <trkpt lat="43.64493" lon="1.37744">
        <ele>146</ele>
        <time>2025-04-12T07:43:07Z</time>
      </trkpt>
      <trkpt lat="43.64493" lon="1.37749">
        <ele>146</ele>
        <time>2025-04-12T07:43:08Z</time>
      </trkpt>
      <trkpt lat="43.64492" lon="1.37751">
        <ele>146</ele>
        <time>2025-04-12T07:43:09Z</time>
      </trkpt>
      <trkpt lat="43.64492" lon="1.37751">
        <ele>146</ele>
        <time>2025-04-12T07:43:10Z</time>
      </trkpt>
      <trkpt lat="43.64491" lon="1.37754">
        <ele>146</ele>
        <time>2025-04-12T07:43:11Z</time>
      </trkpt>
      <trkpt lat="43.6449" lon="1.37757">
        <ele>146</ele>
        <time>2025-04-12T07:43:12Z</time>
      </trkpt>
      <trkpt lat="43.64489" lon="1.37759">
        <ele>146</ele>
        <time>2025-04-12T07:43:13Z</time>
      </trkpt>
      <trkpt lat="43.64488" lon="1.37762">
        <ele>145</ele>
        <time>2025-04-12T07:43:14Z</time>
      </trkpt>
      <trkpt lat="43.64487" lon="1.37765">
        <ele>145</ele>
        <time>2025-04-12T07:43:15Z</time>
      </trkpt>
      <trkpt lat="43.64486" lon="1.37768">
        <ele>145</ele>
        <time>2025-04-12T07:43:16Z</time>
      </trkpt>
      <trkpt lat="43.64484" lon="1.37771">
        <ele>145</ele>
        <time>2025-04-12T07:43:17Z</time>
      </trkpt>
      <trkpt lat="43.64483" lon="1.37775">
        <ele>145</ele>
        <time>2025-04-12T07:43:18Z</time>
      </trkpt>
      <trkpt lat="43.64482" lon="1.37778">
        <ele>145</ele>
        <time>2025-04-12T07:43:19Z</time>
      </trkpt>
      <trkpt lat="43.64481" lon="1.37781">
        <ele>145</ele>
        <time>2025-04-12T07:43:20Z</time>
      </trkpt>
      <trkpt lat="43.6448" lon="1.37784">
        <ele>145</ele>
        <time>2025-04-12T07:43:21Z</time>
      </trkpt>
      <trkpt lat="43.64479" lon="1.37787">
        <ele>145</ele>
        <time>2025-04-12T07:43:22Z</time>
      </trkpt>
      <trkpt lat="43.64478" lon="1.3779">
        <ele>145</ele>
        <time>2025-04-12T07:43:23Z</time>
      </trkpt>
      <trkpt lat="43.64478" lon="1.3779">
        <ele>145</ele>
        <time>2025-04-12T07:43:24Z</time>
      </trkpt>
      <trkpt lat="43.64474" lon="1.37797">
        <ele>145</ele>
        <time>2025-04-12T07:43:25Z</time>
      </trkpt>
      <trkpt lat="43.64473" lon="1.37799">
        <ele>145</ele>
        <time>2025-04-12T07:43:26Z</time>
      </trkpt>
      <trkpt lat="43.64471" lon="1.37802">
        <ele>145</ele>
        <time>2025-04-12T07:43:27Z</time>
      </trkpt>
      <trkpt lat="43.6447" lon="1.37805">
        <ele>145</ele>
        <time>2025-04-12T07:43:28Z</time>
      </trkpt>
      <trkpt lat="43.64469" lon="1.37808">
        <ele>145</ele>
        <time>2025-04-12T07:43:29Z</time>
      </trkpt>
      <trkpt lat="43.64468" lon="1.37812">
        <ele>145</ele>
        <time>2025-04-12T07:43:30Z</time>
      </trkpt>
      <trkpt lat="43.64468" lon="1.37815">
        <ele>145</ele>
        <time>2025-04-12T07:43:31Z</time>
      </trkpt>
      <trkpt lat="43.64468" lon="1.37818">
        <ele>145</ele>
        <time>2025-04-12T07:43:32Z</time>
      </trkpt>
      <trkpt lat="43.64468" lon="1.37821">
        <ele>145</ele>
        <time>2025-04-12T07:43:33Z</time>
      </trkpt>
      <trkpt lat="43.64467" lon="1.37824">
        <ele>145</ele>
        <time>2025-04-12T07:43:34Z</time>
      </trkpt>
      <trkpt lat="43.64467" lon="1.37826">
        <ele>145</ele>
        <time>2025-04-12T07:43:35Z</time>
      </trkpt>
      <trkpt lat="43.64466" lon="1.37829">
        <ele>145</ele>
        <time>2025-04-12T07:43:36Z</time>
      </trkpt>
      <trkpt lat="43.64465" lon="1.37832">
        <ele>145</ele>
        <time>2025-04-12T07:43:37Z</time>
      </trkpt>
      <trkpt lat="43.64465" lon="1.37832">
        <ele>144</ele>
        <time>2025-04-12T07:43:38Z</time>
      </trkpt>
      <trkpt lat="43.64463" lon="1.37838">
        <ele>144</ele>
        <time>2025-04-12T07:43:39Z</time>
      </trkpt>
      <trkpt lat="43.64463" lon="1.37838">
        <ele>144</ele>
        <time>2025-04-12T07:43:40Z</time>
      </trkpt>
      <trkpt lat="43.6446" lon="1.37846">
        <ele>145</ele>
        <time>2025-04-12T07:43:41Z</time>
      </trkpt>
      <trkpt lat="43.6446" lon="1.37847">
        <ele>145</ele>
        <time>2025-04-12T07:43:42Z</time>
      </trkpt>
      <trkpt lat="43.64459" lon="1.37849">
        <ele>145</ele>
        <time>2025-04-12T07:43:43Z</time>
      </trkpt>
      <trkpt lat="43.64459" lon="1.37852">
        <ele>145</ele>
        <time>2025-04-12T07:43:44Z</time>
      </trkpt>
      <trkpt lat="43.64458" lon="1.37855">
        <ele>145</ele>
        <time>2025-04-12T07:43:45Z</time>
      </trkpt>
      <trkpt lat="43.64457" lon="1.37857">
        <ele>145</ele>
        <time>2025-04-12T07:43:46Z</time>
      </trkpt>
      <trkpt lat="43.64456" lon="1.37861">
        <ele>145</ele>
        <time>2025-04-12T07:43:47Z</time>
      </trkpt>
      <trkpt lat="43.64456" lon="1.37864">
        <ele>145</ele>
        <time>2025-04-12T07:43:48Z</time>
      </trkpt>
      <trkpt lat="43.64457" lon="1.37867">
        <ele>144</ele>
        <time>2025-04-12T07:43:49Z</time>
      </trkpt>
      <trkpt lat="43.64457" lon="1.3787">
        <ele>145</ele>
        <time>2025-04-12T07:43:50Z</time>
      </trkpt>
      <trkpt lat="43.64458" lon="1.37873">
        <ele>145</ele>
        <time>2025-04-12T07:43:51Z</time>
      </trkpt>
      <trkpt lat="43.64458" lon="1.37877">
        <ele>145</ele>
        <time>2025-04-12T07:43:52Z</time>
      </trkpt>
      <trkpt lat="43.64459" lon="1.37879">
        <ele>145</ele>
        <time>2025-04-12T07:43:53Z</time>
      </trkpt>
      <trkpt lat="43.6446" lon="1.37882">
        <ele>144</ele>
        <time>2025-04-12T07:43:54Z</time>
      </trkpt>
      <trkpt lat="43.64462" lon="1.37886">
        <ele>144</ele>
        <time>2025-04-12T07:43:55Z</time>
      </trkpt>
      <trkpt lat="43.64463" lon="1.37889">
        <ele>144</ele>
        <time>2025-04-12T07:43:56Z</time>
      </trkpt>
      <trkpt lat="43.64464" lon="1.37892">
        <ele>144</ele>
        <time>2025-04-12T07:43:57Z</time>
      </trkpt>
      <trkpt lat="43.64464" lon="1.37895">
        <ele>144</ele>
        <time>2025-04-12T07:43:58Z</time>
      </trkpt>
      <trkpt lat="43.64464" lon="1.37898">
        <ele>144</ele>
        <time>2025-04-12T07:43:59Z</time>
      </trkpt>
      <trkpt lat="43.64463" lon="1.37901">
        <ele>144</ele>
        <time>2025-04-12T07:44:00Z</time>
      </trkpt>
      <trkpt lat="43.64462" lon="1.37904">
        <ele>144</ele>
        <time>2025-04-12T07:44:01Z</time>
      </trkpt>
      <trkpt lat="43.64462" lon="1.37907">
        <ele>144</ele>
        <time>2025-04-12T07:44:02Z</time>
      </trkpt>
      <trkpt lat="43.64461" lon="1.3791">
        <ele>144</ele>
        <time>2025-04-12T07:44:03Z</time>
      </trkpt>
      <trkpt lat="43.64461" lon="1.37912">
        <ele>144</ele>
        <time>2025-04-12T07:44:04Z</time>
      </trkpt>
      <trkpt lat="43.64461" lon="1.37916">
        <ele>144</ele>
        <time>2025-04-12T07:44:05Z</time>
      </trkpt>
      <trkpt lat="43.64461" lon="1.37919">
        <ele>144</ele>
        <time>2025-04-12T07:44:06Z</time>
      </trkpt>
      <trkpt lat="43.64462" lon="1.37922">
        <ele>144</ele>
        <time>2025-04-12T07:44:07Z</time>
      </trkpt>
      <trkpt lat="43.64462" lon="1.37925">
        <ele>144</ele>
        <time>2025-04-12T07:44:08Z</time>
      </trkpt>
      <trkpt lat="43.64463" lon="1.37927">
        <ele>144</ele>
        <time>2025-04-12T07:44:09Z</time>
      </trkpt>
      <trkpt lat="43.64464" lon="1.3793">
        <ele>144</ele>
        <time>2025-04-12T07:44:10Z</time>
      </trkpt>
      <trkpt lat="43.64465" lon="1.37933">
        <ele>144</ele>
        <time>2025-04-12T07:44:11Z</time>
      </trkpt>
      <trkpt lat="43.64465" lon="1.37935">
        <ele>144</ele>
        <time>2025-04-12T07:44:12Z</time>
      </trkpt>
      <trkpt lat="43.64466" lon="1.37938">
        <ele>144</ele>
        <time>2025-04-12T07:44:13Z</time>
      </trkpt>
      <trkpt lat="43.64468" lon="1.37941">
        <ele>143</ele>
        <time>2025-04-12T07:44:14Z</time>
      </trkpt>
      <trkpt lat="43.64469" lon="1.37943">
        <ele>143</ele>
        <time>2025-04-12T07:44:15Z</time>
      </trkpt>
      <trkpt lat="43.64471" lon="1.37945">
        <ele>143</ele>
        <time>2025-04-12T07:44:16Z</time>
      </trkpt>
      <trkpt lat="43.64472" lon="1.37947">
        <ele>143</ele>
        <time>2025-04-12T07:44:17Z</time>
      </trkpt>
      <trkpt lat="43.64475" lon="1.37949">
        <ele>143</ele>
        <time>2025-04-12T07:44:18Z</time>
      </trkpt>
      <trkpt lat="43.64477" lon="1.37951">
        <ele>143</ele>
        <time>2025-04-12T07:44:19Z</time>
      </trkpt>
      <trkpt lat="43.64479" lon="1.37952">
        <ele>143</ele>
        <time>2025-04-12T07:44:20Z</time>
      </trkpt>
      <trkpt lat="43.64481" lon="1.37953">
        <ele>143</ele>
        <time>2025-04-12T07:44:21Z</time>
      </trkpt>
      <trkpt lat="43.64483" lon="1.37954">
        <ele>143</ele>
        <time>2025-04-12T07:44:22Z</time>
      </trkpt>
      <trkpt lat="43.64485" lon="1.37955">
        <ele>143</ele>
        <time>2025-04-12T07:44:23Z</time>
      </trkpt>
      <trkpt lat="43.64485" lon="1.37955">
        <ele>143</ele>
        <time>2025-04-12T07:44:24Z</time>
      </trkpt>
      <trkpt lat="43.64488" lon="1.37957">
        <ele>143</ele>
        <time>2025-04-12T07:44:25Z</time>
      </trkpt>
      <trkpt lat="43.64488" lon="1.37957">
        <ele>143</ele>
        <time>2025-04-12T07:44:26Z</time>
      </trkpt>
      <trkpt lat="43.64491" lon="1.3796">
        <ele>143</ele>
        <time>2025-04-12T07:44:27Z</time>
      </trkpt>
      <trkpt lat="43.64493" lon="1.37961">
        <ele>143</ele>
        <time>2025-04-12T07:44:28Z</time>
      </trkpt>
      <trkpt lat="43.64495" lon="1.37962">
        <ele>143</ele>
        <time>2025-04-12T07:44:29Z</time>
      </trkpt>
      <trkpt lat="43.64495" lon="1.37962">
        <ele>143</ele>
        <time>2025-04-12T07:44:30Z</time>
      </trkpt>
      <trkpt lat="43.64497" lon="1.37963">
        <ele>143</ele>
        <time>2025-04-12T07:44:31Z</time>
      </trkpt>
      <trkpt lat="43.64499" lon="1.37965">
        <ele>143</ele>
        <time>2025-04-12T07:44:32Z</time>
      </trkpt>
      <trkpt lat="43.64502" lon="1.37966">
        <ele>143</ele>
        <time>2025-04-12T07:44:33Z</time>
      </trkpt>
      <trkpt lat="43.64504" lon="1.37967">
        <ele>143</ele>
        <time>2025-04-12T07:44:34Z</time>
      </trkpt>
      <trkpt lat="43.64504" lon="1.37967">
        <ele>143</ele>
        <time>2025-04-12T07:44:35Z</time>
      </trkpt>
      <trkpt lat="43.64507" lon="1.37969">
        <ele>143</ele>
        <time>2025-04-12T07:44:36Z</time>
      </trkpt>
      <trkpt lat="43.64509" lon="1.37971">
        <ele>143</ele>
        <time>2025-04-12T07:44:37Z</time>
      </trkpt>
      <trkpt lat="43.64511" lon="1.37972">
        <ele>143</ele>
        <time>2025-04-12T07:44:38Z</time>
      </trkpt>
      <trkpt lat="43.64511" lon="1.37972">
        <ele>143</ele>
        <time>2025-04-12T07:44:39Z</time>
      </trkpt>
      <trkpt lat="43.64514" lon="1.37975">
        <ele>143</ele>
        <time>2025-04-12T07:44:40Z</time>
      </trkpt>
      <trkpt lat="43.64516" lon="1.37976">
        <ele>143</ele>
        <time>2025-04-12T07:44:41Z</time>
      </trkpt>
      <trkpt lat="43.64518" lon="1.37978">
        <ele>143</ele>
        <time>2025-04-12T07:44:42Z</time>
      </trkpt>
      <trkpt lat="43.64519" lon="1.37979">
        <ele>144</ele>
        <time>2025-04-12T07:44:43Z</time>
      </trkpt>
      <trkpt lat="43.64521" lon="1.3798">
        <ele>144</ele>
        <time>2025-04-12T07:44:44Z</time>
      </trkpt>
      <trkpt lat="43.64523" lon="1.37982">
        <ele>144</ele>
        <time>2025-04-12T07:44:45Z</time>
      </trkpt>
      <trkpt lat="43.64526" lon="1.37983">
        <ele>144</ele>
        <time>2025-04-12T07:44:46Z</time>
      </trkpt>
      <trkpt lat="43.64528" lon="1.37984">
        <ele>144</ele>
        <time>2025-04-12T07:44:47Z</time>
      </trkpt>
      <trkpt lat="43.6453" lon="1.37985">
        <ele>144</ele>
        <time>2025-04-12T07:44:48Z</time>
      </trkpt>
      <trkpt lat="43.64532" lon="1.37985">
        <ele>144</ele>
        <time>2025-04-12T07:44:49Z</time>
      </trkpt>
      <trkpt lat="43.64535" lon="1.37986">
        <ele>144</ele>
        <time>2025-04-12T07:44:50Z</time>
      </trkpt>
      <trkpt lat="43.64535" lon="1.37986">
        <ele>144</ele>
        <time>2025-04-12T07:44:51Z</time>
      </trkpt>
      <trkpt lat="43.64539" lon="1.37987">
        <ele>144</ele>
        <time>2025-04-12T07:44:52Z</time>
      </trkpt>
      <trkpt lat="43.64541" lon="1.37986">
        <ele>144</ele>
        <time>2025-04-12T07:44:53Z</time>
      </trkpt>
      <trkpt lat="43.64543" lon="1.37986">
        <ele>144</ele>
        <time>2025-04-12T07:44:54Z</time>
      </trkpt>
      <trkpt lat="43.64545" lon="1.37986">
        <ele>144</ele>
        <time>2025-04-12T07:44:55Z</time>
      </trkpt>
      <trkpt lat="43.64547" lon="1.37985">
        <ele>144</ele>
        <time>2025-04-12T07:44:56Z</time>
      </trkpt>
      <trkpt lat="43.64549" lon="1.37984">
        <ele>144</ele>
        <time>2025-04-12T07:44:57Z</time>
      </trkpt>
      <trkpt lat="43.64551" lon="1.37982">
        <ele>144</ele>
        <time>2025-04-12T07:44:58Z</time>
      </trkpt>
      <trkpt lat="43.64553" lon="1.37981">
        <ele>144</ele>
        <time>2025-04-12T07:44:59Z</time>
      </trkpt>
      <trkpt lat="43.64555" lon="1.37979">
        <ele>144</ele>
        <time>2025-04-12T07:45:00Z</time>
      </trkpt>
      <trkpt lat="43.64557" lon="1.37978">
        <ele>144</ele>
        <time>2025-04-12T07:45:01Z</time>
      </trkpt>
      <trkpt lat="43.64559" lon="1.37975">
        <ele>144</ele>
        <time>2025-04-12T07:45:02Z</time>
      </trkpt>
      <trkpt lat="43.64561" lon="1.37973">
        <ele>144</ele>
        <time>2025-04-12T07:45:03Z</time>
      </trkpt>
      <trkpt lat="43.64562" lon="1.37971">
        <ele>144</ele>
        <time>2025-04-12T07:45:04Z</time>
      </trkpt>
      <trkpt lat="43.64564" lon="1.37968">
        <ele>144</ele>
        <time>2025-04-12T07:45:05Z</time>
      </trkpt>
      <trkpt lat="43.64565" lon="1.37965">
        <ele>144</ele>
        <time>2025-04-12T07:45:06Z</time>
      </trkpt>
      <trkpt lat="43.64566" lon="1.37962">
        <ele>144</ele>
        <time>2025-04-12T07:45:07Z</time>
      </trkpt>
      <trkpt lat="43.64567" lon="1.3796">
        <ele>144</ele>
        <time>2025-04-12T07:45:08Z</time>
      </trkpt>
      <trkpt lat="43.64567" lon="1.3796">
        <ele>144</ele>
        <time>2025-04-12T07:45:09Z</time>
      </trkpt>
      <trkpt lat="43.64567" lon="1.37954">
        <ele>144</ele>
        <time>2025-04-12T07:45:10Z</time>
      </trkpt>
      <trkpt lat="43.64568" lon="1.37952">
        <ele>144</ele>
        <time>2025-04-12T07:45:11Z</time>
      </trkpt>
      <trkpt lat="43.64568" lon="1.37949">
        <ele>144</ele>
        <time>2025-04-12T07:45:12Z</time>
      </trkpt>
      <trkpt lat="43.64568" lon="1.37947">
        <ele>144</ele>
        <time>2025-04-12T07:45:13Z</time>
      </trkpt>
      <trkpt lat="43.64568" lon="1.37944">
        <ele>144</ele>
        <time>2025-04-12T07:45:14Z</time>
      </trkpt>
      <trkpt lat="43.64568" lon="1.37941">
        <ele>144</ele>
        <time>2025-04-12T07:45:15Z</time>
      </trkpt>
      <trkpt lat="43.64568" lon="1.37939">
        <ele>144</ele>
        <time>2025-04-12T07:45:16Z</time>
      </trkpt>
      <trkpt lat="43.64568" lon="1.37935">
        <ele>144</ele>
        <time>2025-04-12T07:45:17Z</time>
      </trkpt>
      <trkpt lat="43.64568" lon="1.37932">
        <ele>144</ele>
        <time>2025-04-12T07:45:18Z</time>
      </trkpt>
      <trkpt lat="43.64568" lon="1.3793">
        <ele>144</ele>
        <time>2025-04-12T07:45:19Z</time>
      </trkpt>
      <trkpt lat="43.64568" lon="1.3793">
        <ele>144</ele>
        <time>2025-04-12T07:45:20Z</time>
      </trkpt>
      <trkpt lat="43.64566" lon="1.37923">
        <ele>144</ele>
        <time>2025-04-12T07:45:21Z</time>
      </trkpt>
      <trkpt lat="43.64565" lon="1.37922">
        <ele>144</ele>
        <time>2025-04-12T07:45:22Z</time>
      </trkpt>
      <trkpt lat="43.64564" lon="1.3792">
        <ele>144</ele>
        <time>2025-04-12T07:45:23Z</time>
      </trkpt>
      <trkpt lat="43.64562" lon="1.37917">
        <ele>144</ele>
        <time>2025-04-12T07:45:24Z</time>
      </trkpt>
      <trkpt lat="43.6456" lon="1.37915">
        <ele>144</ele>
        <time>2025-04-12T07:45:25Z</time>
      </trkpt>
      <trkpt lat="43.64559" lon="1.37913">
        <ele>144</ele>
        <time>2025-04-12T07:45:26Z</time>
      </trkpt>
      <trkpt lat="43.64557" lon="1.37911">
        <ele>144</ele>
        <time>2025-04-12T07:45:27Z</time>
      </trkpt>
      <trkpt lat="43.64555" lon="1.37909">
        <ele>144</ele>
        <time>2025-04-12T07:45:28Z</time>
      </trkpt>
      <trkpt lat="43.64554" lon="1.37907">
        <ele>144</ele>
        <time>2025-04-12T07:45:29Z</time>
      </trkpt>
      <trkpt lat="43.64552" lon="1.37906">
        <ele>144</ele>
        <time>2025-04-12T07:45:30Z</time>
      </trkpt>
      <trkpt lat="43.6455" lon="1.37905">
        <ele>144</ele>
        <time>2025-04-12T07:45:31Z</time>
      </trkpt>
      <trkpt lat="43.64548" lon="1.37904">
        <ele>144</ele>
        <time>2025-04-12T07:45:32Z</time>
      </trkpt>
      <trkpt lat="43.64546" lon="1.37903">
        <ele>144</ele>
        <time>2025-04-12T07:45:33Z</time>
      </trkpt>
      <trkpt lat="43.64543" lon="1.37901">
        <ele>144</ele>
        <time>2025-04-12T07:45:34Z</time>
      </trkpt>
      <trkpt lat="43.64541" lon="1.379">
        <ele>144</ele>
        <time>2025-04-12T07:45:35Z</time>
      </trkpt>
      <trkpt lat="43.64539" lon="1.37899">
        <ele>144</ele>
        <time>2025-04-12T07:45:36Z</time>
      </trkpt>
      <trkpt lat="43.64537" lon="1.37897">
        <ele>144</ele>
        <time>2025-04-12T07:45:37Z</time>
      </trkpt>
      <trkpt lat="43.64535" lon="1.37895">
        <ele>144</ele>
        <time>2025-04-12T07:45:38Z</time>
      </trkpt>
      <trkpt lat="43.64533" lon="1.37895">
        <ele>144</ele>
        <time>2025-04-12T07:45:39Z</time>
      </trkpt>
      <trkpt lat="43.64531" lon="1.37893">
        <ele>144</ele>
        <time>2025-04-12T07:45:40Z</time>
      </trkpt>
      <trkpt lat="43.64531" lon="1.37893">
        <ele>144</ele>
        <time>2025-04-12T07:45:41Z</time>
      </trkpt>
      <trkpt lat="43.64527" lon="1.37891">
        <ele>144</ele>
        <time>2025-04-12T07:45:42Z</time>
      </trkpt>
      <trkpt lat="43.64525" lon="1.37889">
        <ele>144</ele>
        <time>2025-04-12T07:45:43Z</time>
      </trkpt>
      <trkpt lat="43.64523" lon="1.37888">
        <ele>144</ele>
        <time>2025-04-12T07:45:44Z</time>
      </trkpt>
      <trkpt lat="43.64521" lon="1.37886">
        <ele>144</ele>
        <time>2025-04-12T07:45:45Z</time>
      </trkpt>
      <trkpt lat="43.64519" lon="1.37885">
        <ele>144</ele>
        <time>2025-04-12T07:45:46Z</time>
      </trkpt>
      <trkpt lat="43.64517" lon="1.37884">
        <ele>144</ele>
        <time>2025-04-12T07:45:47Z</time>
      </trkpt>
      <trkpt lat="43.64515" lon="1.37883">
        <ele>144</ele>
        <time>2025-04-12T07:45:48Z</time>
      </trkpt>
      <trkpt lat="43.64513" lon="1.37882">
        <ele>144</ele>
        <time>2025-04-12T07:45:49Z</time>
      </trkpt>
      <trkpt lat="43.64511" lon="1.37881">
        <ele>144</ele>
        <time>2025-04-12T07:45:50Z</time>
      </trkpt>
      <trkpt lat="43.64509" lon="1.37879">
        <ele>144</ele>
        <time>2025-04-12T07:45:51Z</time>
      </trkpt>
      <trkpt lat="43.64507" lon="1.37878">
        <ele>144</ele>
        <time>2025-04-12T07:45:52Z</time>
      </trkpt>
      <trkpt lat="43.64505" lon="1.37877">
        <ele>144</ele>
        <time>2025-04-12T07:45:53Z</time>
      </trkpt>
      <trkpt lat="43.64503" lon="1.37876">
        <ele>144</ele>
        <time>2025-04-12T07:45:54Z</time>
      </trkpt>
      <trkpt lat="43.64501" lon="1.37874">
        <ele>144</ele>
        <time>2025-04-12T07:45:55Z</time>
      </trkpt>
      <trkpt lat="43.64499" lon="1.37873">
        <ele>144</ele>
        <time>2025-04-12T07:45:56Z</time>
      </trkpt>
      <trkpt lat="43.64497" lon="1.37871">
        <ele>144</ele>
        <time>2025-04-12T07:45:57Z</time>
      </trkpt>
      <trkpt lat="43.64495" lon="1.3787">
        <ele>144</ele>
        <time>2025-04-12T07:45:58Z</time>
      </trkpt>
      <trkpt lat="43.64493" lon="1.37869">
        <ele>144</ele>
        <time>2025-04-12T07:45:59Z</time>
      </trkpt>
      <trkpt lat="43.64491" lon="1.37868">
        <ele>144</ele>
        <time>2025-04-12T07:46:00Z</time>
      </trkpt>
      <trkpt lat="43.64491" lon="1.37868">
        <ele>144</ele>
        <time>2025-04-12T07:46:01Z</time>
      </trkpt>
      <trkpt lat="43.64487" lon="1.37867">
        <ele>144</ele>
        <time>2025-04-12T07:46:02Z</time>
      </trkpt>
      <trkpt lat="43.64486" lon="1.37867">
        <ele>144</ele>
        <time>2025-04-12T07:46:03Z</time>
      </trkpt>
      <trkpt lat="43.64483" lon="1.37868">
        <ele>144</ele>
        <time>2025-04-12T07:46:04Z</time>
      </trkpt>
      <trkpt lat="43.64481" lon="1.37869">
        <ele>144</ele>
        <time>2025-04-12T07:46:05Z</time>
      </trkpt>
      <trkpt lat="43.64479" lon="1.3787">
        <ele>144</ele>
        <time>2025-04-12T07:46:06Z</time>
      </trkpt>
      <trkpt lat="43.64477" lon="1.37871">
        <ele>144</ele>
        <time>2025-04-12T07:46:07Z</time>
      </trkpt>
      <trkpt lat="43.64475" lon="1.37872">
        <ele>144</ele>
        <time>2025-04-12T07:46:08Z</time>
      </trkpt>
      <trkpt lat="43.64473" lon="1.37874">
        <ele>144</ele>
        <time>2025-04-12T07:46:09Z</time>
      </trkpt>
      <trkpt lat="43.64471" lon="1.37876">
        <ele>144</ele>
        <time>2025-04-12T07:46:10Z</time>
      </trkpt>
      <trkpt lat="43.64469" lon="1.37878">
        <ele>144</ele>
        <time>2025-04-12T07:46:11Z</time>
      </trkpt>
      <trkpt lat="43.64467" lon="1.3788">
        <ele>144</ele>
        <time>2025-04-12T07:46:12Z</time>
      </trkpt>
      <trkpt lat="43.64466" lon="1.37882">
        <ele>144</ele>
        <time>2025-04-12T07:46:13Z</time>
      </trkpt>
      <trkpt lat="43.64465" lon="1.37884">
        <ele>144</ele>
        <time>2025-04-12T07:46:14Z</time>
      </trkpt>
      <trkpt lat="43.64463" lon="1.37886">
        <ele>144</ele>
        <time>2025-04-12T07:46:15Z</time>
      </trkpt>
      <trkpt lat="43.64462" lon="1.37889">
        <ele>144</ele>
        <time>2025-04-12T07:46:16Z</time>
      </trkpt>
      <trkpt lat="43.64461" lon="1.37891">
        <ele>144</ele>
        <time>2025-04-12T07:46:17Z</time>
      </trkpt>
      <trkpt lat="43.6446" lon="1.37894">
        <ele>144</ele>
        <time>2025-04-12T07:46:18Z</time>
      </trkpt>
      <trkpt lat="43.6446" lon="1.37896">
        <ele>144</ele>
        <time>2025-04-12T07:46:19Z</time>
      </trkpt>
      <trkpt lat="43.64459" lon="1.37899">
        <ele>144</ele>
        <time>2025-04-12T07:46:20Z</time>
      </trkpt>
      <trkpt lat="43.64458" lon="1.37902">
        <ele>144</ele>
        <time>2025-04-12T07:46:21Z</time>
      </trkpt>
      <trkpt lat="43.64458" lon="1.37905">
        <ele>144</ele>
        <time>2025-04-12T07:46:22Z</time>
      </trkpt>
      <trkpt lat="43.64458" lon="1.37908">
        <ele>144</ele>
        <time>2025-04-12T07:46:23Z</time>
      </trkpt>
      <trkpt lat="43.64458" lon="1.37911">
        <ele>144</ele>
        <time>2025-04-12T07:46:24Z</time>
      </trkpt>
      <trkpt lat="43.64458" lon="1.37914">
        <ele>144</ele>
        <time>2025-04-12T07:46:25Z</time>
      </trkpt>
      <trkpt lat="43.64458" lon="1.37917">
        <ele>144</ele>
        <time>2025-04-12T07:46:26Z</time>
      </trkpt>
      <trkpt lat="43.64459" lon="1.3792">
        <ele>144</ele>
        <time>2025-04-12T07:46:27Z</time>
      </trkpt>
      <trkpt lat="43.64459" lon="1.37923">
        <ele>144</ele>
        <time>2025-04-12T07:46:28Z</time>
      </trkpt>
      <trkpt lat="43.6446" lon="1.37926">
        <ele>144</ele>
        <time>2025-04-12T07:46:29Z</time>
      </trkpt>
      <trkpt lat="43.64461" lon="1.37929">
        <ele>144</ele>
        <time>2025-04-12T07:46:30Z</time>
      </trkpt>
      <trkpt lat="43.64462" lon="1.37932">
        <ele>144</ele>
        <time>2025-04-12T07:46:31Z</time>
      </trkpt>
      <trkpt lat="43.64463" lon="1.37935">
        <ele>144</ele>
        <time>2025-04-12T07:46:32Z</time>
      </trkpt>
      <trkpt lat="43.64464" lon="1.37937">
        <ele>144</ele>
        <time>2025-04-12T07:46:33Z</time>
      </trkpt>
      <trkpt lat="43.64465" lon="1.3794">
        <ele>144</ele>
        <time>2025-04-12T07:46:34Z</time>
      </trkpt>
      <trkpt lat="43.64466" lon="1.37942">
        <ele>144</ele>
        <time>2025-04-12T07:46:35Z</time>
      </trkpt>
      <trkpt lat="43.64468" lon="1.37944">
        <ele>143</ele>
        <time>2025-04-12T07:46:36Z</time>
      </trkpt>
      <trkpt lat="43.64469" lon="1.37946">
        <ele>144</ele>
        <time>2025-04-12T07:46:37Z</time>
      </trkpt>
      <trkpt lat="43.64473" lon="1.3795">
        <ele>144</ele>
        <time>2025-04-12T07:46:39Z</time>
      </trkpt>
      <trkpt lat="43.64475" lon="1.37951">
        <ele>144</ele>
        <time>2025-04-12T07:46:40Z</time>
      </trkpt>
      <trkpt lat="43.64478" lon="1.37953">
        <ele>144</ele>
        <time>2025-04-12T07:46:41Z</time>
      </trkpt>
      <trkpt lat="43.6448" lon="1.37954">
        <ele>144</ele>
        <time>2025-04-12T07:46:42Z</time>
      </trkpt>
      <trkpt lat="43.64483" lon="1.37955">
        <ele>144</ele>
        <time>2025-04-12T07:46:43Z</time>
      </trkpt>
      <trkpt lat="43.64486" lon="1.37956">
        <ele>144</ele>
        <time>2025-04-12T07:46:44Z</time>
      </trkpt>
      <trkpt lat="43.64488" lon="1.37957">
        <ele>144</ele>
        <time>2025-04-12T07:46:45Z</time>
      </trkpt>
      <trkpt lat="43.64491" lon="1.37958">
        <ele>144</ele>
        <time>2025-04-12T07:46:46Z</time>
      </trkpt>
      <trkpt lat="43.64494" lon="1.37959">
        <ele>144</ele>
        <time>2025-04-12T07:46:47Z</time>
      </trkpt>
      <trkpt lat="43.64496" lon="1.3796">
        <ele>144</ele>
        <time>2025-04-12T07:46:48Z</time>
      </trkpt>
      <trkpt lat="43.64499" lon="1.37961">
        <ele>144</ele>
        <time>2025-04-12T07:46:49Z</time>
      </trkpt>
      <trkpt lat="43.64501" lon="1.37963">
        <ele>144</ele>
        <time>2025-04-12T07:46:50Z</time>
      </trkpt>
      <trkpt lat="43.64504" lon="1.37965">
        <ele>144</ele>
        <time>2025-04-12T07:46:51Z</time>
      </trkpt>
      <trkpt lat="43.64506" lon="1.37966">
        <ele>144</ele>
        <time>2025-04-12T07:46:52Z</time>
      </trkpt>
      <trkpt lat="43.64509" lon="1.37967">
        <ele>144</ele>
        <time>2025-04-12T07:46:53Z</time>
      </trkpt>
      <trkpt lat="43.64511" lon="1.37969">
        <ele>144</ele>
        <time>2025-04-12T07:46:54Z</time>
      </trkpt>
      <trkpt lat="43.64514" lon="1.37971">
        <ele>144</ele>
        <time>2025-04-12T07:46:55Z</time>
      </trkpt>
      <trkpt lat="43.64517" lon="1.37972">
        <ele>144</ele>
        <time>2025-04-12T07:46:56Z</time>
      </trkpt>
      <trkpt lat="43.64519" lon="1.37974">
        <ele>144</ele>
        <time>2025-04-12T07:46:57Z</time>
      </trkpt>
      <trkpt lat="43.64522" lon="1.37976">
        <ele>144</ele>
        <time>2025-04-12T07:46:58Z</time>
      </trkpt>
      <trkpt lat="43.64524" lon="1.37978">
        <ele>144</ele>
        <time>2025-04-12T07:46:59Z</time>
      </trkpt>
      <trkpt lat="43.64527" lon="1.37979">
        <ele>144</ele>
        <time>2025-04-12T07:47:00Z</time>
      </trkpt>
      <trkpt lat="43.64529" lon="1.3798">
        <ele>144</ele>
        <time>2025-04-12T07:47:01Z</time>
      </trkpt>
      <trkpt lat="43.64532" lon="1.37981">
        <ele>144</ele>
        <time>2025-04-12T07:47:02Z</time>
      </trkpt>
      <trkpt lat="43.64535" lon="1.37982">
        <ele>144</ele>
        <time>2025-04-12T07:47:03Z</time>
      </trkpt>
      <trkpt lat="43.64537" lon="1.37982">
        <ele>144</ele>
        <time>2025-04-12T07:47:04Z</time>
      </trkpt>
      <trkpt lat="43.6454" lon="1.37982">
        <ele>144</ele>
        <time>2025-04-12T07:47:05Z</time>
      </trkpt>
      <trkpt lat="43.64543" lon="1.37981">
        <ele>144</ele>
        <time>2025-04-12T07:47:06Z</time>
      </trkpt>
      <trkpt lat="43.64545" lon="1.3798">
        <ele>144</ele>
        <time>2025-04-12T07:47:07Z</time>
      </trkpt>
      <trkpt lat="43.64548" lon="1.37979">
        <ele>144</ele>
        <time>2025-04-12T07:47:08Z</time>
      </trkpt>
      <trkpt lat="43.6455" lon="1.37977">
        <ele>144</ele>
        <time>2025-04-12T07:47:09Z</time>
      </trkpt>
      <trkpt lat="43.64553" lon="1.37976">
        <ele>144</ele>
        <time>2025-04-12T07:47:10Z</time>
      </trkpt>
      <trkpt lat="43.64555" lon="1.37974">
        <ele>144</ele>
        <time>2025-04-12T07:47:11Z</time>
      </trkpt>
      <trkpt lat="43.64557" lon="1.37972">
        <ele>144</ele>
        <time>2025-04-12T07:47:12Z</time>
      </trkpt>
      <trkpt lat="43.6456" lon="1.37969">
        <ele>144</ele>
        <time>2025-04-12T07:47:13Z</time>
      </trkpt>
      <trkpt lat="43.64562" lon="1.37966">
        <ele>144</ele>
        <time>2025-04-12T07:47:14Z</time>
      </trkpt>
      <trkpt lat="43.64563" lon="1.37963">
        <ele>144</ele>
        <time>2025-04-12T07:47:15Z</time>
      </trkpt>
      <trkpt lat="43.64565" lon="1.3796">
        <ele>144</ele>
        <time>2025-04-12T07:47:16Z</time>
      </trkpt>
      <trkpt lat="43.64566" lon="1.37957">
        <ele>144</ele>
        <time>2025-04-12T07:47:17Z</time>
      </trkpt>
      <trkpt lat="43.64568" lon="1.37953">
        <ele>144</ele>
        <time>2025-04-12T07:47:18Z</time>
      </trkpt>
      <trkpt lat="43.64569" lon="1.3795">
        <ele>144</ele>
        <time>2025-04-12T07:47:19Z</time>
      </trkpt>
      <trkpt lat="43.64569" lon="1.37946">
        <ele>144</ele>
        <time>2025-04-12T07:47:20Z</time>
      </trkpt>
      <trkpt lat="43.64569" lon="1.37943">
        <ele>144</ele>
        <time>2025-04-12T07:47:21Z</time>
      </trkpt>
      <trkpt lat="43.64569" lon="1.37939">
        <ele>144</ele>
        <time>2025-04-12T07:47:22Z</time>
      </trkpt>
      <trkpt lat="43.64569" lon="1.37935">
        <ele>144</ele>
        <time>2025-04-12T07:47:23Z</time>
      </trkpt>
      <trkpt lat="43.64568" lon="1.37932">
        <ele>144</ele>
        <time>2025-04-12T07:47:24Z</time>
      </trkpt>
      <trkpt lat="43.64567" lon="1.37928">
        <ele>144</ele>
        <time>2025-04-12T07:47:25Z</time>
      </trkpt>
      <trkpt lat="43.64566" lon="1.37924">
        <ele>144</ele>
        <time>2025-04-12T07:47:26Z</time>
      </trkpt>
      <trkpt lat="43.64564" lon="1.37921">
        <ele>144</ele>
        <time>2025-04-12T07:47:27Z</time>
      </trkpt>
      <trkpt lat="43.64562" lon="1.37918">
        <ele>144</ele>
        <time>2025-04-12T07:47:28Z</time>
      </trkpt>
      <trkpt lat="43.6456" lon="1.37915">
        <ele>144</ele>
        <time>2025-04-12T07:47:29Z</time>
      </trkpt>
      <trkpt lat="43.64558" lon="1.37913">
        <ele>144</ele>
        <time>2025-04-12T07:47:30Z</time>
      </trkpt>
      <trkpt lat="43.64556" lon="1.3791">
        <ele>144</ele>
        <time>2025-04-12T07:47:31Z</time>
      </trkpt>
      <trkpt lat="43.64554" lon="1.37908">
        <ele>144</ele>
        <time>2025-04-12T07:47:32Z</time>
      </trkpt>
      <trkpt lat="43.64552" lon="1.37905">
        <ele>144</ele>
        <time>2025-04-12T07:47:33Z</time>
      </trkpt>
      <trkpt lat="43.64549" lon="1.37903">
        <ele>144</ele>
        <time>2025-04-12T07:47:34Z</time>
      </trkpt>
      <trkpt lat="43.64547" lon="1.379">
        <ele>144</ele>
        <time>2025-04-12T07:47:35Z</time>
      </trkpt>
      <trkpt lat="43.64544" lon="1.37898">
        <ele>144</ele>
        <time>2025-04-12T07:47:36Z</time>
      </trkpt>
      <trkpt lat="43.64542" lon="1.37897">
        <ele>144</ele>
        <time>2025-04-12T07:47:37Z</time>
      </trkpt>
      <trkpt lat="43.64539" lon="1.37895">
        <ele>144</ele>
        <time>2025-04-12T07:47:38Z</time>
      </trkpt>
      <trkpt lat="43.64536" lon="1.37894">
        <ele>144</ele>
        <time>2025-04-12T07:47:39Z</time>
      </trkpt>
      <trkpt lat="43.64534" lon="1.37892">
        <ele>144</ele>
        <time>2025-04-12T07:47:40Z</time>
      </trkpt>
      <trkpt lat="43.64531" lon="1.37891">
        <ele>144</ele>
        <time>2025-04-12T07:47:41Z</time>
      </trkpt>
      <trkpt lat="43.64528" lon="1.3789">
        <ele>144</ele>
        <time>2025-04-12T07:47:42Z</time>
      </trkpt>
      <trkpt lat="43.64526" lon="1.37888">
        <ele>144</ele>
        <time>2025-04-12T07:47:43Z</time>
      </trkpt>
      <trkpt lat="43.64523" lon="1.37887">
        <ele>144</ele>
        <time>2025-04-12T07:47:44Z</time>
      </trkpt>
      <trkpt lat="43.64521" lon="1.37885">
        <ele>144</ele>
        <time>2025-04-12T07:47:45Z</time>
      </trkpt>
      <trkpt lat="43.64518" lon="1.37883">
        <ele>144</ele>
        <time>2025-04-12T07:47:46Z</time>
      </trkpt>
      <trkpt lat="43.64515" lon="1.37882">
        <ele>144</ele>
        <time>2025-04-12T07:47:47Z</time>
      </trkpt>
      <trkpt lat="43.64512" lon="1.3788">
        <ele>144</ele>
        <time>2025-04-12T07:47:48Z</time>
      </trkpt>
      <trkpt lat="43.6451" lon="1.37878">
        <ele>144</ele>
        <time>2025-04-12T07:47:49Z</time>
      </trkpt>
      <trkpt lat="43.64507" lon="1.37877">
        <ele>144</ele>
        <time>2025-04-12T07:47:50Z</time>
      </trkpt>
      <trkpt lat="43.64505" lon="1.37876">
        <ele>144</ele>
        <time>2025-04-12T07:47:51Z</time>
      </trkpt>
      <trkpt lat="43.64502" lon="1.37874">
        <ele>144</ele>
        <time>2025-04-12T07:47:52Z</time>
      </trkpt>
      <trkpt lat="43.645" lon="1.37873">
        <ele>144</ele>
        <time>2025-04-12T07:47:53Z</time>
      </trkpt>
      <trkpt lat="43.64497" lon="1.37872">
        <ele>144</ele>
        <time>2025-04-12T07:47:54Z</time>
      </trkpt>
      <trkpt lat="43.64494" lon="1.37871">
        <ele>144</ele>
        <time>2025-04-12T07:47:55Z</time>
      </trkpt>
      <trkpt lat="43.64491" lon="1.3787">
        <ele>144</ele>
        <time>2025-04-12T07:47:56Z</time>
      </trkpt>
      <trkpt lat="43.64489" lon="1.37869">
        <ele>144</ele>
        <time>2025-04-12T07:47:57Z</time>
      </trkpt>
      <trkpt lat="43.64486" lon="1.37869">
        <ele>144</ele>
        <time>2025-04-12T07:47:58Z</time>
      </trkpt>
      <trkpt lat="43.64483" lon="1.37869">
        <ele>144</ele>
        <time>2025-04-12T07:47:59Z</time>
      </trkpt>
      <trkpt lat="43.6448" lon="1.3787">
        <ele>144</ele>
        <time>2025-04-12T07:48:00Z</time>
      </trkpt>
      <trkpt lat="43.64478" lon="1.37871">
        <ele>144</ele>
        <time>2025-04-12T07:48:01Z</time>
      </trkpt>
      <trkpt lat="43.64475" lon="1.37872">
        <ele>144</ele>
        <time>2025-04-12T07:48:02Z</time>
      </trkpt>
      <trkpt lat="43.64473" lon="1.37874">
        <ele>144</ele>
        <time>2025-04-12T07:48:03Z</time>
      </trkpt>
      <trkpt lat="43.6447" lon="1.37876">
        <ele>144</ele>
        <time>2025-04-12T07:48:04Z</time>
      </trkpt>
      <trkpt lat="43.64468" lon="1.37878">
        <ele>144</ele>
        <time>2025-04-12T07:48:05Z</time>
      </trkpt>
      <trkpt lat="43.64466" lon="1.3788">
        <ele>144</ele>
        <time>2025-04-12T07:48:06Z</time>
      </trkpt>
      <trkpt lat="43.64465" lon="1.37883">
        <ele>144</ele>
        <time>2025-04-12T07:48:07Z</time>
      </trkpt>
      <trkpt lat="43.64463" lon="1.37885">
        <ele>144</ele>
        <time>2025-04-12T07:48:08Z</time>
      </trkpt>
      <trkpt lat="43.64461" lon="1.37889">
        <ele>144</ele>
        <time>2025-04-12T07:48:09Z</time>
      </trkpt>
      <trkpt lat="43.6446" lon="1.37891">
        <ele>144</ele>
        <time>2025-04-12T07:48:10Z</time>
      </trkpt>
      <trkpt lat="43.6446" lon="1.37891">
        <ele>144</ele>
        <time>2025-04-12T07:48:11Z</time>
      </trkpt>
      <trkpt lat="43.64459" lon="1.37895">
        <ele>144</ele>
        <time>2025-04-12T07:48:12Z</time>
      </trkpt>
      <trkpt lat="43.64459" lon="1.37895">
        <ele>144</ele>
        <time>2025-04-12T07:48:13Z</time>
      </trkpt>
      <trkpt lat="43.64459" lon="1.37899">
        <ele>144</ele>
        <time>2025-04-12T07:48:14Z</time>
      </trkpt>
      <trkpt lat="43.64459" lon="1.37899">
        <ele>144</ele>
        <time>2025-04-12T07:48:15Z</time>
      </trkpt>
      <trkpt lat="43.64459" lon="1.37902">
        <ele>144</ele>
        <time>2025-04-12T07:48:16Z</time>
      </trkpt>
      <trkpt lat="43.64459" lon="1.37902">
        <ele>144</ele>
        <time>2025-04-12T07:48:17Z</time>
      </trkpt>
      <trkpt lat="43.64459" lon="1.37902">
        <ele>144</ele>
        <time>2025-04-12T07:48:18Z</time>
      </trkpt>
      <trkpt lat="43.64459" lon="1.37902">
        <ele>144</ele>
        <time>2025-04-12T07:48:19Z</time>
      </trkpt>
      <trkpt lat="43.64459" lon="1.37902">
        <ele>144</ele>
        <time>2025-04-12T07:48:20Z</time>
      </trkpt>
      <trkpt lat="43.64459" lon="1.37902">
        <ele>144</ele>
        <time>2025-04-12T07:48:21Z</time>
      </trkpt>
      <trkpt lat="43.64459" lon="1.37905">
        <ele>144</ele>
        <time>2025-04-12T07:48:22Z</time>
      </trkpt>
      <trkpt lat="43.64459" lon="1.37905">
        <ele>144</ele>
        <time>2025-04-12T07:48:23Z</time>
      </trkpt>
      <trkpt lat="43.64459" lon="1.37905">
        <ele>144</ele>
        <time>2025-04-12T07:48:24Z</time>
      </trkpt>
      <trkpt lat="43.6446" lon="1.37908">
        <ele>144</ele>
        <time>2025-04-12T07:48:25Z</time>
      </trkpt>
      <trkpt lat="43.6446" lon="1.37908">
        <ele>144</ele>
        <time>2025-04-12T07:48:26Z</time>
      </trkpt>
      <trkpt lat="43.6446" lon="1.37908">
        <ele>144</ele>
        <time>2025-04-12T07:48:27Z</time>
      </trkpt>
      <trkpt lat="43.6446" lon="1.37908">
        <ele>144</ele>
        <time>2025-04-12T07:48:28Z</time>
      </trkpt>
      <trkpt lat="43.6446" lon="1.37911">
        <ele>144</ele>
        <time>2025-04-12T07:48:29Z</time>
      </trkpt>
      <trkpt lat="43.6446" lon="1.37911">
        <ele>144</ele>
        <time>2025-04-12T07:48:30Z</time>
      </trkpt>
      <trkpt lat="43.6446" lon="1.37911">
        <ele>144</ele>
        <time>2025-04-12T07:48:31Z</time>
      </trkpt>
      <trkpt lat="43.6446" lon="1.37911">
        <ele>144</ele>
        <time>2025-04-12T07:48:32Z</time>
      </trkpt>
      <trkpt lat="43.6446" lon="1.37914">
        <ele>144</ele>
        <time>2025-04-12T07:48:33Z</time>
      </trkpt>
      <trkpt lat="43.6446" lon="1.37914">
        <ele>144</ele>
        <time>2025-04-12T07:48:34Z</time>
      </trkpt>
      <trkpt lat="43.6446" lon="1.37914">
        <ele>144</ele>
        <time>2025-04-12T07:48:35Z</time>
      </trkpt>
      <trkpt lat="43.6446" lon="1.37914">
        <ele>144</ele>
        <time>2025-04-12T07:48:36Z</time>
      </trkpt>
      <trkpt lat="43.6446" lon="1.37914">
        <ele>144</ele>
        <time>2025-04-12T07:48:37Z</time>
      </trkpt>
      <trkpt lat="43.6446" lon="1.37914">
        <ele>144</ele>
        <time>2025-04-12T07:48:38Z</time>
      </trkpt>
      <trkpt lat="43.64459" lon="1.37916">
        <ele>144</ele>
        <time>2025-04-12T07:48:39Z</time>
      </trkpt>
      <trkpt lat="43.64459" lon="1.37916">
        <ele>144</ele>
        <time>2025-04-12T07:48:40Z</time>
      </trkpt>
      <trkpt lat="43.64459" lon="1.37916">
        <ele>144</ele>
        <time>2025-04-12T07:48:41Z</time>
      </trkpt>
      <trkpt lat="43.64459" lon="1.37919">
        <ele>144</ele>
        <time>2025-04-12T07:48:42Z</time>
      </trkpt>
      <trkpt lat="43.64459" lon="1.37919">
        <ele>144</ele>
        <time>2025-04-12T07:48:43Z</time>
      </trkpt>
      <trkpt lat="43.64459" lon="1.37919">
        <ele>144</ele>
        <time>2025-04-12T07:48:44Z</time>
      </trkpt>
      <trkpt lat="43.64459" lon="1.37919">
        <ele>144</ele>
        <time>2025-04-12T07:48:45Z</time>
      </trkpt>
      <trkpt lat="43.64459" lon="1.37919">
        <ele>144</ele>
        <time>2025-04-12T07:48:46Z</time>
      </trkpt>
      <trkpt lat="43.6446" lon="1.37923">
        <ele>144</ele>
        <time>2025-04-12T07:48:47Z</time>
      </trkpt>
      <trkpt lat="43.6446" lon="1.37923">
        <ele>144</ele>
        <time>2025-04-12T07:48:48Z</time>
      </trkpt>
      <trkpt lat="43.6446" lon="1.37923">
        <ele>144</ele>
        <time>2025-04-12T07:48:49Z</time>
      </trkpt>
      <trkpt lat="43.64461" lon="1.37925">
        <ele>144</ele>
        <time>2025-04-12T07:48:50Z</time>
      </trkpt>
      <trkpt lat="43.64461" lon="1.37925">
        <ele>144</ele>
        <time>2025-04-12T07:48:51Z</time>
      </trkpt>
      <trkpt lat="43.64461" lon="1.37925">
        <ele>144</ele>
        <time>2025-04-12T07:48:52Z</time>
      </trkpt>
      <trkpt lat="43.64461" lon="1.37925">
        <ele>144</ele>
        <time>2025-04-12T07:48:53Z</time>
      </trkpt>
      <trkpt lat="43.64462" lon="1.37929">
        <ele>144</ele>
        <time>2025-04-12T07:48:54Z</time>
      </trkpt>
      <trkpt lat="43.64462" lon="1.37929">
        <ele>144</ele>
        <time>2025-04-12T07:48:55Z</time>
      </trkpt>
      <trkpt lat="43.64462" lon="1.37929">
        <ele>144</ele>
        <time>2025-04-12T07:48:56Z</time>
      </trkpt>
      <trkpt lat="43.64462" lon="1.37931">
        <ele>144</ele>
        <time>2025-04-12T07:48:57Z</time>
      </trkpt>
      <trkpt lat="43.64462" lon="1.37931">
        <ele>144</ele>
        <time>2025-04-12T07:48:58Z</time>
      </trkpt>
      <trkpt lat="43.64462" lon="1.37931">
        <ele>144</ele>
        <time>2025-04-12T07:48:59Z</time>
      </trkpt>
      <trkpt lat="43.64464" lon="1.37933">
        <ele>144</ele>
        <time>2025-04-12T07:49:00Z</time>
      </trkpt>
      <trkpt lat="43.64464" lon="1.37933">
        <ele>144</ele>
        <time>2025-04-12T07:49:01Z</time>
      </trkpt>
      <trkpt lat="43.64465" lon="1.37935">
        <ele>144</ele>
        <time>2025-04-12T07:49:02Z</time>
      </trkpt>
      <trkpt lat="43.64465" lon="1.37935">
        <ele>144</ele>
        <time>2025-04-12T07:49:03Z</time>
      </trkpt>
      <trkpt lat="43.64465" lon="1.37935">
        <ele>144</ele>
        <time>2025-04-12T07:49:04Z</time>
      </trkpt>
      <trkpt lat="43.64466" lon="1.37937">
        <ele>144</ele>
        <time>2025-04-12T07:49:05Z</time>
      </trkpt>
      <trkpt lat="43.64466" lon="1.37937">
        <ele>144</ele>
        <time>2025-04-12T07:49:06Z</time>
      </trkpt>
      <trkpt lat="43.64466" lon="1.37937">
        <ele>144</ele>
        <time>2025-04-12T07:49:07Z</time>
      </trkpt>
      <trkpt lat="43.64467" lon="1.3794">
        <ele>144</ele>
        <time>2025-04-12T07:49:08Z</time>
      </trkpt>
      <trkpt lat="43.64467" lon="1.3794">
        <ele>144</ele>
        <time>2025-04-12T07:49:09Z</time>
      </trkpt>
      <trkpt lat="43.64468" lon="1.37943">
        <ele>143</ele>
        <time>2025-04-12T07:49:10Z</time>
      </trkpt>
      <trkpt lat="43.64468" lon="1.37943">
        <ele>143</ele>
        <time>2025-04-12T07:49:11Z</time>
      </trkpt>
      <trkpt lat="43.6447" lon="1.37945">
        <ele>143</ele>
        <time>2025-04-12T07:49:12Z</time>
      </trkpt>
      <trkpt lat="43.6447" lon="1.37945">
        <ele>143</ele>
        <time>2025-04-12T07:49:13Z</time>
      </trkpt>
      <trkpt lat="43.64472" lon="1.37947">
        <ele>143</ele>
        <time>2025-04-12T07:49:14Z</time>
      </trkpt>
      <trkpt lat="43.64472" lon="1.37947">
        <ele>143</ele>
        <time>2025-04-12T07:49:15Z</time>
      </trkpt>
      <trkpt lat="43.64474" lon="1.37948">
        <ele>143</ele>
        <time>2025-04-12T07:49:16Z</time>
      </trkpt>
      <trkpt lat="43.64474" lon="1.37948">
        <ele>143</ele>
        <time>2025-04-12T07:49:17Z</time>
      </trkpt>
      <trkpt lat="43.64477" lon="1.3795">
        <ele>143</ele>
        <time>2025-04-12T07:49:18Z</time>
      </trkpt>
      <trkpt lat="43.64477" lon="1.3795">
        <ele>144</ele>
        <time>2025-04-12T07:49:19Z</time>
      </trkpt>
      <trkpt lat="43.6448" lon="1.37952">
        <ele>144</ele>
        <time>2025-04-12T07:49:20Z</time>
      </trkpt>
      <trkpt lat="43.6448" lon="1.37952">
        <ele>144</ele>
        <time>2025-04-12T07:49:21Z</time>
      </trkpt>
      <trkpt lat="43.64482" lon="1.37954">
        <ele>144</ele>
        <time>2025-04-12T07:49:22Z</time>
      </trkpt>
      <trkpt lat="43.64482" lon="1.37954">
        <ele>144</ele>
        <time>2025-04-12T07:49:23Z</time>
      </trkpt>
      <trkpt lat="43.64485" lon="1.37954">
        <ele>144</ele>
        <time>2025-04-12T07:49:24Z</time>
      </trkpt>
      <trkpt lat="43.64485" lon="1.37954">
        <ele>144</ele>
        <time>2025-04-12T07:49:25Z</time>
      </trkpt>
      <trkpt lat="43.64487" lon="1.37955">
        <ele>144</ele>
        <time>2025-04-12T07:49:26Z</time>
      </trkpt>
      <trkpt lat="43.64487" lon="1.37955">
        <ele>143</ele>
        <time>2025-04-12T07:49:27Z</time>
      </trkpt>
      <trkpt lat="43.6449" lon="1.37957">
        <ele>143</ele>
        <time>2025-04-12T07:49:28Z</time>
      </trkpt>
      <trkpt lat="43.6449" lon="1.37957">
        <ele>143</ele>
        <time>2025-04-12T07:49:29Z</time>
      </trkpt>
      <trkpt lat="43.64492" lon="1.37958">
        <ele>143</ele>
        <time>2025-04-12T07:49:30Z</time>
      </trkpt>
      <trkpt lat="43.64492" lon="1.37958">
        <ele>143</ele>
        <time>2025-04-12T07:49:31Z</time>
      </trkpt>
      <trkpt lat="43.64495" lon="1.37958">
        <ele>143</ele>
        <time>2025-04-12T07:49:32Z</time>
      </trkpt>
      <trkpt lat="43.64495" lon="1.37958">
        <ele>143</ele>
        <time>2025-04-12T07:49:33Z</time>
      </trkpt>
      <trkpt lat="43.64497" lon="1.37959">
        <ele>143</ele>
        <time>2025-04-12T07:49:34Z</time>
      </trkpt>
      <trkpt lat="43.64497" lon="1.37959">
        <ele>143</ele>
        <time>2025-04-12T07:49:35Z</time>
      </trkpt>
      <trkpt lat="43.645" lon="1.37961">
        <ele>143</ele>
        <time>2025-04-12T07:49:36Z</time>
      </trkpt>
      <trkpt lat="43.64503" lon="1.37962">
        <ele>143</ele>
        <time>2025-04-12T07:49:37Z</time>
      </trkpt>
      <trkpt lat="43.64504" lon="1.37964">
        <ele>143</ele>
        <time>2025-04-12T07:49:38Z</time>
      </trkpt>
      <trkpt lat="43.64504" lon="1.37964">
        <ele>143</ele>
        <time>2025-04-12T07:49:39Z</time>
      </trkpt>
      <trkpt lat="43.64507" lon="1.37966">
        <ele>143</ele>
        <time>2025-04-12T07:49:40Z</time>
      </trkpt>
      <trkpt lat="43.64507" lon="1.37966">
        <ele>143</ele>
        <time>2025-04-12T07:49:41Z</time>
      </trkpt>
      <trkpt lat="43.64509" lon="1.37968">
        <ele>143</ele>
        <time>2025-04-12T07:49:42Z</time>
      </trkpt>
      <trkpt lat="43.64509" lon="1.37968">
        <ele>143</ele>
        <time>2025-04-12T07:49:43Z</time>
      </trkpt>
      <trkpt lat="43.64512" lon="1.3797">
        <ele>143</ele>
        <time>2025-04-12T07:49:44Z</time>
      </trkpt>
      <trkpt lat="43.64512" lon="1.3797">
        <ele>143</ele>
        <time>2025-04-12T07:49:45Z</time>
      </trkpt>
      <trkpt lat="43.64514" lon="1.37971">
        <ele>144</ele>
        <time>2025-04-12T07:49:46Z</time>
      </trkpt>
      <trkpt lat="43.64514" lon="1.37971">
        <ele>144</ele>
        <time>2025-04-12T07:49:47Z</time>
      </trkpt>
      <trkpt lat="43.64517" lon="1.37973">
        <ele>144</ele>
        <time>2025-04-12T07:49:48Z</time>
      </trkpt>
      <trkpt lat="43.64518" lon="1.37974">
        <ele>144</ele>
        <time>2025-04-12T07:49:49Z</time>
      </trkpt>
      <trkpt lat="43.64518" lon="1.37974">
        <ele>144</ele>
        <time>2025-04-12T07:49:50Z</time>
      </trkpt>
      <trkpt lat="43.64521" lon="1.37976">
        <ele>144</ele>
        <time>2025-04-12T07:49:51Z</time>
      </trkpt>
      <trkpt lat="43.64521" lon="1.37976">
        <ele>144</ele>
        <time>2025-04-12T07:49:52Z</time>
      </trkpt>
      <trkpt lat="43.64524" lon="1.37978">
        <ele>143</ele>
        <time>2025-04-12T07:49:53Z</time>
      </trkpt>
      <trkpt lat="43.64526" lon="1.3798">
        <ele>143</ele>
        <time>2025-04-12T07:49:54Z</time>
      </trkpt>
      <trkpt lat="43.64526" lon="1.3798">
        <ele>144</ele>
        <time>2025-04-12T07:49:55Z</time>
      </trkpt>
      <trkpt lat="43.64528" lon="1.37982">
        <ele>144</ele>
        <time>2025-04-12T07:49:56Z</time>
      </trkpt>
      <trkpt lat="43.64528" lon="1.37982">
        <ele>144</ele>
        <time>2025-04-12T07:49:57Z</time>
      </trkpt>
      <trkpt lat="43.6453" lon="1.37984">
        <ele>144</ele>
        <time>2025-04-12T07:49:58Z</time>
      </trkpt>
      <trkpt lat="43.6453" lon="1.37984">
        <ele>144</ele>
        <time>2025-04-12T07:49:59Z</time>
      </trkpt>
      <trkpt lat="43.64533" lon="1.37985">
        <ele>144</ele>
        <time>2025-04-12T07:50:00Z</time>
      </trkpt>
      <trkpt lat="43.64533" lon="1.37985">
        <ele>144</ele>
        <time>2025-04-12T07:50:01Z</time>
      </trkpt>
      <trkpt lat="43.64535" lon="1.37986">
        <ele>144</ele>
        <time>2025-04-12T07:50:02Z</time>
      </trkpt>
      <trkpt lat="43.64535" lon="1.37986">
        <ele>144</ele>
        <time>2025-04-12T07:50:03Z</time>
      </trkpt>
      <trkpt lat="43.64537" lon="1.37987">
        <ele>144</ele>
        <time>2025-04-12T07:50:04Z</time>
      </trkpt>
      <trkpt lat="43.64537" lon="1.37987">
        <ele>144</ele>
        <time>2025-04-12T07:50:05Z</time>
      </trkpt>
      <trkpt lat="43.64537" lon="1.37987">
        <ele>144</ele>
        <time>2025-04-12T07:50:06Z</time>
      </trkpt>
      <trkpt lat="43.6454" lon="1.37987">
        <ele>144</ele>
        <time>2025-04-12T07:50:07Z</time>
      </trkpt>
      <trkpt lat="43.6454" lon="1.37987">
        <ele>143</ele>
        <time>2025-04-12T07:50:08Z</time>
      </trkpt>
      <trkpt lat="43.6454" lon="1.37987">
        <ele>143</ele>
        <time>2025-04-12T07:50:09Z</time>
      </trkpt>
      <trkpt lat="43.64542" lon="1.37987">
        <ele>143</ele>
        <time>2025-04-12T07:50:10Z</time>
      </trkpt>
      <trkpt lat="43.64542" lon="1.37987">
        <ele>143</ele>
        <time>2025-04-12T07:50:11Z</time>
      </trkpt>
      <trkpt lat="43.64544" lon="1.37986">
        <ele>144</ele>
        <time>2025-04-12T07:50:12Z</time>
      </trkpt>
      <trkpt lat="43.64544" lon="1.37986">
        <ele>144</ele>
        <time>2025-04-12T07:50:13Z</time>
      </trkpt>
      <trkpt lat="43.64544" lon="1.37986">
        <ele>144</ele>
        <time>2025-04-12T07:50:14Z</time>
      </trkpt>
      <trkpt lat="43.64547" lon="1.37985">
        <ele>143</ele>
        <time>2025-04-12T07:50:15Z</time>
      </trkpt>
      <trkpt lat="43.64547" lon="1.37985">
        <ele>143</ele>
        <time>2025-04-12T07:50:16Z</time>
      </trkpt>
      <trkpt lat="43.64547" lon="1.37985">
        <ele>144</ele>
        <time>2025-04-12T07:50:17Z</time>
      </trkpt>
      <trkpt lat="43.64549" lon="1.37983">
        <ele>144</ele>
        <time>2025-04-12T07:50:18Z</time>
      </trkpt>
      <trkpt lat="43.64549" lon="1.37983">
        <ele>143</ele>
        <time>2025-04-12T07:50:19Z</time>
      </trkpt>
      <trkpt lat="43.64551" lon="1.37982">
        <ele>143</ele>
        <time>2025-04-12T07:50:20Z</time>
      </trkpt>
      <trkpt lat="43.64551" lon="1.37982">
        <ele>143</ele>
        <time>2025-04-12T07:50:21Z</time>
      </trkpt>
      <trkpt lat="43.64551" lon="1.37982">
        <ele>143</ele>
        <time>2025-04-12T07:50:22Z</time>
      </trkpt>
      <trkpt lat="43.64553" lon="1.37981">
        <ele>144</ele>
        <time>2025-04-12T07:50:23Z</time>
      </trkpt>
      <trkpt lat="43.64553" lon="1.37981">
        <ele>144</ele>
        <time>2025-04-12T07:50:24Z</time>
      </trkpt>
      <trkpt lat="43.64553" lon="1.37981">
        <ele>144</ele>
        <time>2025-04-12T07:50:25Z</time>
      </trkpt>
      <trkpt lat="43.64556" lon="1.37979">
        <ele>144</ele>
        <time>2025-04-12T07:50:26Z</time>
      </trkpt>
      <trkpt lat="43.64556" lon="1.37979">
        <ele>144</ele>
        <time>2025-04-12T07:50:27Z</time>
      </trkpt>
      <trkpt lat="43.64557" lon="1.37977">
        <ele>144</ele>
        <time>2025-04-12T07:50:28Z</time>
      </trkpt>
      <trkpt lat="43.64557" lon="1.37977">
        <ele>144</ele>
        <time>2025-04-12T07:50:29Z</time>
      </trkpt>
      <trkpt lat="43.64557" lon="1.37977">
        <ele>144</ele>
        <time>2025-04-12T07:50:30Z</time>
      </trkpt>
      <trkpt lat="43.64559" lon="1.37975">
        <ele>144</ele>
        <time>2025-04-12T07:50:31Z</time>
      </trkpt>
      <trkpt lat="43.64559" lon="1.37975">
        <ele>144</ele>
        <time>2025-04-12T07:50:32Z</time>
      </trkpt>
      <trkpt lat="43.64559" lon="1.37975">
        <ele>144</ele>
        <time>2025-04-12T07:50:33Z</time>
      </trkpt>
      <trkpt lat="43.64561" lon="1.37973">
        <ele>144</ele>
        <time>2025-04-12T07:50:34Z</time>
      </trkpt>
      <trkpt lat="43.64561" lon="1.37973">
        <ele>144</ele>
        <time>2025-04-12T07:50:35Z</time>
      </trkpt>
      <trkpt lat="43.64562" lon="1.37971">
        <ele>144</ele>
        <time>2025-04-12T07:50:36Z</time>
      </trkpt>
      <trkpt lat="43.64562" lon="1.37971">
        <ele>144</ele>
        <time>2025-04-12T07:50:37Z</time>
      </trkpt>
      <trkpt lat="43.64562" lon="1.37971">
        <ele>144</ele>
        <time>2025-04-12T07:50:38Z</time>
      </trkpt>
      <trkpt lat="43.64564" lon="1.37968">
        <ele>144</ele>
        <time>2025-04-12T07:50:39Z</time>
      </trkpt>
      <trkpt lat="43.64564" lon="1.37968">
        <ele>144</ele>
        <time>2025-04-12T07:50:40Z</time>
      </trkpt>
      <trkpt lat="43.64564" lon="1.37968">
        <ele>144</ele>
        <time>2025-04-12T07:50:41Z</time>
      </trkpt>
      <trkpt lat="43.64565" lon="1.37965">
        <ele>144</ele>
        <time>2025-04-12T07:50:42Z</time>
      </trkpt>
      <trkpt lat="43.64565" lon="1.37965">
        <ele>144</ele>
        <time>2025-04-12T07:50:43Z</time>
      </trkpt>
      <trkpt lat="43.64565" lon="1.37965">
        <ele>144</ele>
        <time>2025-04-12T07:50:44Z</time>
      </trkpt>
      <trkpt lat="43.64565" lon="1.37962">
        <ele>144</ele>
        <time>2025-04-12T07:50:45Z</time>
      </trkpt>
      <trkpt lat="43.64565" lon="1.37962">
        <ele>144</ele>
        <time>2025-04-12T07:50:46Z</time>
      </trkpt>
      <trkpt lat="43.64566" lon="1.3796">
        <ele>144</ele>
        <time>2025-04-12T07:50:47Z</time>
      </trkpt>
      <trkpt lat="43.64566" lon="1.3796">
        <ele>144</ele>
        <time>2025-04-12T07:50:48Z</time>
      </trkpt>
      <trkpt lat="43.64567" lon="1.37957">
        <ele>143</ele>
        <time>2025-04-12T07:50:49Z</time>
      </trkpt>
      <trkpt lat="43.64567" lon="1.37957">
        <ele>143</ele>
        <time>2025-04-12T07:50:50Z</time>
      </trkpt>
      <trkpt lat="43.64566" lon="1.37954">
        <ele>143</ele>
        <time>2025-04-12T07:50:51Z</time>
      </trkpt>
      <trkpt lat="43.64566" lon="1.37954">
        <ele>143</ele>
        <time>2025-04-12T07:50:52Z</time>
      </trkpt>
      <trkpt lat="43.64566" lon="1.37952">
        <ele>143</ele>
        <time>2025-04-12T07:50:53Z</time>
      </trkpt>
      <trkpt lat="43.64566" lon="1.37952">
        <ele>143</ele>
        <time>2025-04-12T07:50:54Z</time>
      </trkpt>
      <trkpt lat="43.64566" lon="1.37948">
        <ele>144</ele>
        <time>2025-04-12T07:50:55Z</time>
      </trkpt>
      <trkpt lat="43.64566" lon="1.37948">
        <ele>144</ele>
        <time>2025-04-12T07:50:56Z</time>
      </trkpt>
      <trkpt lat="43.64566" lon="1.37945">
        <ele>143</ele>
        <time>2025-04-12T07:50:57Z</time>
      </trkpt>
      <trkpt lat="43.64566" lon="1.37945">
        <ele>143</ele>
        <time>2025-04-12T07:50:58Z</time>
      </trkpt>
      <trkpt lat="43.64566" lon="1.37941">
        <ele>143</ele>
        <time>2025-04-12T07:50:59Z</time>
      </trkpt>
      <trkpt lat="43.64566" lon="1.37941">
        <ele>143</ele>
        <time>2025-04-12T07:51:00Z</time>
      </trkpt>
      <trkpt lat="43.64565" lon="1.37938">
        <ele>143</ele>
        <time>2025-04-12T07:51:01Z</time>
      </trkpt>
      <trkpt lat="43.64565" lon="1.37938">
        <ele>143</ele>
        <time>2025-04-12T07:51:02Z</time>
      </trkpt>
      <trkpt lat="43.64563" lon="1.37935">
        <ele>143</ele>
        <time>2025-04-12T07:51:03Z</time>
      </trkpt>
      <trkpt lat="43.64563" lon="1.37935">
        <ele>143</ele>
        <time>2025-04-12T07:51:04Z</time>
      </trkpt>
      <trkpt lat="43.64562" lon="1.37931">
        <ele>143</ele>
        <time>2025-04-12T07:51:05Z</time>
      </trkpt>
      <trkpt lat="43.64562" lon="1.37931">
        <ele>143</ele>
        <time>2025-04-12T07:51:06Z</time>
      </trkpt>
      <trkpt lat="43.64561" lon="1.37928">
        <ele>143</ele>
        <time>2025-04-12T07:51:07Z</time>
      </trkpt>
      <trkpt lat="43.64561" lon="1.37928">
        <ele>143</ele>
        <time>2025-04-12T07:51:08Z</time>
      </trkpt>
      <trkpt lat="43.64561" lon="1.37924">
        <ele>143</ele>
        <time>2025-04-12T07:51:09Z</time>
      </trkpt>
      <trkpt lat="43.64561" lon="1.37924">
        <ele>143</ele>
        <time>2025-04-12T07:51:10Z</time>
      </trkpt>
      <trkpt lat="43.6456" lon="1.37922">
        <ele>143</ele>
        <time>2025-04-12T07:51:11Z</time>
      </trkpt>
      <trkpt lat="43.6456" lon="1.37922">
        <ele>143</ele>
        <time>2025-04-12T07:51:12Z</time>
      </trkpt>
      <trkpt lat="43.64559" lon="1.37919">
        <ele>143</ele>
        <time>2025-04-12T07:51:13Z</time>
      </trkpt>
      <trkpt lat="43.64559" lon="1.37919">
        <ele>143</ele>
        <time>2025-04-12T07:51:14Z</time>
      </trkpt>
      <trkpt lat="43.64558" lon="1.37917">
        <ele>143</ele>
        <time>2025-04-12T07:51:15Z</time>
      </trkpt>
      <trkpt lat="43.64558" lon="1.37917">
        <ele>143</ele>
        <time>2025-04-12T07:51:16Z</time>
      </trkpt>
      <trkpt lat="43.64556" lon="1.37914">
        <ele>143</ele>
        <time>2025-04-12T07:51:17Z</time>
      </trkpt>
      <trkpt lat="43.64556" lon="1.37914">
        <ele>143</ele>
        <time>2025-04-12T07:51:18Z</time>
      </trkpt>
      <trkpt lat="43.64555" lon="1.37912">
        <ele>143</ele>
        <time>2025-04-12T07:51:19Z</time>
      </trkpt>
      <trkpt lat="43.64555" lon="1.37912">
        <ele>143</ele>
        <time>2025-04-12T07:51:20Z</time>
      </trkpt>
      <trkpt lat="43.64553" lon="1.3791">
        <ele>143</ele>
        <time>2025-04-12T07:51:21Z</time>
      </trkpt>
      <trkpt lat="43.64553" lon="1.3791">
        <ele>143</ele>
        <time>2025-04-12T07:51:22Z</time>
      </trkpt>
      <trkpt lat="43.64552" lon="1.37908">
        <ele>143</ele>
        <time>2025-04-12T07:51:23Z</time>
      </trkpt>
      <trkpt lat="43.64552" lon="1.37908">
        <ele>143</ele>
        <time>2025-04-12T07:51:24Z</time>
      </trkpt>
      <trkpt lat="43.6455" lon="1.37906">
        <ele>143</ele>
        <time>2025-04-12T07:51:25Z</time>
      </trkpt>
      <trkpt lat="43.6455" lon="1.37906">
        <ele>144</ele>
        <time>2025-04-12T07:51:26Z</time>
      </trkpt>
      <trkpt lat="43.64548" lon="1.37905">
        <ele>144</ele>
        <time>2025-04-12T07:51:27Z</time>
      </trkpt>
      <trkpt lat="43.64548" lon="1.37905">
        <ele>144</ele>
        <time>2025-04-12T07:51:28Z</time>
      </trkpt>
      <trkpt lat="43.64545" lon="1.37903">
        <ele>144</ele>
        <time>2025-04-12T07:51:29Z</time>
      </trkpt>
      <trkpt lat="43.64545" lon="1.37903">
        <ele>144</ele>
        <time>2025-04-12T07:51:30Z</time>
      </trkpt>
      <trkpt lat="43.64542" lon="1.37901">
        <ele>144</ele>
        <time>2025-04-12T07:51:31Z</time>
      </trkpt>
      <trkpt lat="43.64542" lon="1.37901">
        <ele>144</ele>
        <time>2025-04-12T07:51:32Z</time>
      </trkpt>
      <trkpt lat="43.64541" lon="1.379">
        <ele>144</ele>
        <time>2025-04-12T07:51:33Z</time>
      </trkpt>
      <trkpt lat="43.64541" lon="1.379">
        <ele>144</ele>
        <time>2025-04-12T07:51:34Z</time>
      </trkpt>
      <trkpt lat="43.64538" lon="1.37898">
        <ele>144</ele>
        <time>2025-04-12T07:51:35Z</time>
      </trkpt>
      <trkpt lat="43.64538" lon="1.37898">
        <ele>144</ele>
        <time>2025-04-12T07:51:36Z</time>
      </trkpt>
      <trkpt lat="43.64535" lon="1.37896">
        <ele>144</ele>
        <time>2025-04-12T07:51:37Z</time>
      </trkpt>
      <trkpt lat="43.64533" lon="1.37894">
        <ele>144</ele>
        <time>2025-04-12T07:51:38Z</time>
      </trkpt>
      <trkpt lat="43.64531" lon="1.37893">
        <ele>144</ele>
        <time>2025-04-12T07:51:39Z</time>
      </trkpt>
      <trkpt lat="43.64528" lon="1.37892">
        <ele>143</ele>
        <time>2025-04-12T07:51:40Z</time>
      </trkpt>
      <trkpt lat="43.64526" lon="1.37891">
        <ele>144</ele>
        <time>2025-04-12T07:51:41Z</time>
      </trkpt>
      <trkpt lat="43.64524" lon="1.3789">
        <ele>144</ele>
        <time>2025-04-12T07:51:42Z</time>
      </trkpt>
      <trkpt lat="43.64522" lon="1.37889">
        <ele>143</ele>
        <time>2025-04-12T07:51:43Z</time>
      </trkpt>
      <trkpt lat="43.64522" lon="1.37889">
        <ele>143</ele>
        <time>2025-04-12T07:51:44Z</time>
      </trkpt>
      <trkpt lat="43.64519" lon="1.37888">
        <ele>143</ele>
        <time>2025-04-12T07:51:45Z</time>
      </trkpt>
      <trkpt lat="43.64519" lon="1.37888">
        <ele>143</ele>
        <time>2025-04-12T07:51:46Z</time>
      </trkpt>
      <trkpt lat="43.64516" lon="1.37886">
        <ele>144</ele>
        <time>2025-04-12T07:51:47Z</time>
      </trkpt>
      <trkpt lat="43.64516" lon="1.37886">
        <ele>144</ele>
        <time>2025-04-12T07:51:48Z</time>
      </trkpt>
      <trkpt lat="43.64515" lon="1.37884">
        <ele>144</ele>
        <time>2025-04-12T07:51:49Z</time>
      </trkpt>
      <trkpt lat="43.64515" lon="1.37884">
        <ele>144</ele>
        <time>2025-04-12T07:51:50Z</time>
      </trkpt>
      <trkpt lat="43.64512" lon="1.37882">
        <ele>143</ele>
        <time>2025-04-12T07:51:51Z</time>
      </trkpt>
      <trkpt lat="43.64512" lon="1.37882">
        <ele>143</ele>
        <time>2025-04-12T07:51:52Z</time>
      </trkpt>
      <trkpt lat="43.6451" lon="1.37881">
        <ele>143</ele>
        <time>2025-04-12T07:51:53Z</time>
      </trkpt>
      <trkpt lat="43.6451" lon="1.37881">
        <ele>143</ele>
        <time>2025-04-12T07:51:54Z</time>
      </trkpt>
      <trkpt lat="43.64509" lon="1.3788">
        <ele>143</ele>
        <time>2025-04-12T07:51:55Z</time>
      </trkpt>
      <trkpt lat="43.64509" lon="1.3788">
        <ele>144</ele>
        <time>2025-04-12T07:51:56Z</time>
      </trkpt>
      <trkpt lat="43.64506" lon="1.37878">
        <ele>144</ele>
        <time>2025-04-12T07:51:57Z</time>
      </trkpt>
      <trkpt lat="43.64503" lon="1.37876">
        <ele>144</ele>
        <time>2025-04-12T07:51:58Z</time>
      </trkpt>
      <trkpt lat="43.64501" lon="1.37875">
        <ele>144</ele>
        <time>2025-04-12T07:51:59Z</time>
      </trkpt>
      <trkpt lat="43.64499" lon="1.37874">
        <ele>144</ele>
        <time>2025-04-12T07:52:00Z</time>
      </trkpt>
      <trkpt lat="43.64497" lon="1.37873">
        <ele>144</ele>
        <time>2025-04-12T07:52:01Z</time>
      </trkpt>
      <trkpt lat="43.64495" lon="1.37872">
        <ele>144</ele>
        <time>2025-04-12T07:52:02Z</time>
      </trkpt>
      <trkpt lat="43.64492" lon="1.37871">
        <ele>144</ele>
        <time>2025-04-12T07:52:03Z</time>
      </trkpt>
      <trkpt lat="43.6449" lon="1.37871">
        <ele>144</ele>
        <time>2025-04-12T07:52:04Z</time>
      </trkpt>
      <trkpt lat="43.64487" lon="1.37871">
        <ele>144</ele>
        <time>2025-04-12T07:52:05Z</time>
      </trkpt>
      <trkpt lat="43.64485" lon="1.37872">
        <ele>144</ele>
        <time>2025-04-12T07:52:06Z</time>
      </trkpt>
      <trkpt lat="43.64485" lon="1.37872">
        <ele>144</ele>
        <time>2025-04-12T07:52:07Z</time>
      </trkpt>
      <trkpt lat="43.64482" lon="1.37872">
        <ele>144</ele>
        <time>2025-04-12T07:52:08Z</time>
      </trkpt>
      <trkpt lat="43.64482" lon="1.37872">
        <ele>144</ele>
        <time>2025-04-12T07:52:09Z</time>
      </trkpt>
      <trkpt lat="43.6448" lon="1.37872">
        <ele>144</ele>
        <time>2025-04-12T07:52:10Z</time>
      </trkpt>
      <trkpt lat="43.6448" lon="1.37872">
        <ele>144</ele>
        <time>2025-04-12T07:52:11Z</time>
      </trkpt>
      <trkpt lat="43.6448" lon="1.37872">
        <ele>144</ele>
        <time>2025-04-12T07:52:12Z</time>
      </trkpt>
      <trkpt lat="43.64477" lon="1.37873">
        <ele>144</ele>
        <time>2025-04-12T07:52:13Z</time>
      </trkpt>
      <trkpt lat="43.64477" lon="1.37873">
        <ele>144</ele>
        <time>2025-04-12T07:52:14Z</time>
      </trkpt>
      <trkpt lat="43.64477" lon="1.37873">
        <ele>144</ele>
        <time>2025-04-12T07:52:15Z</time>
      </trkpt>
      <trkpt lat="43.64475" lon="1.37874">
        <ele>144</ele>
        <time>2025-04-12T07:52:16Z</time>
      </trkpt>
      <trkpt lat="43.64475" lon="1.37874">
        <ele>143</ele>
        <time>2025-04-12T07:52:17Z</time>
      </trkpt>
      <trkpt lat="43.64473" lon="1.37876">
        <ele>144</ele>
        <time>2025-04-12T07:52:18Z</time>
      </trkpt>
      <trkpt lat="43.64473" lon="1.37876">
        <ele>144</ele>
        <time>2025-04-12T07:52:19Z</time>
      </trkpt>
      <trkpt lat="43.64471" lon="1.37877">
        <ele>143</ele>
        <time>2025-04-12T07:52:20Z</time>
      </trkpt>
      <trkpt lat="43.64471" lon="1.37877">
        <ele>144</ele>
        <time>2025-04-12T07:52:21Z</time>
      </trkpt>
      <trkpt lat="43.64469" lon="1.37877">
        <ele>144</ele>
        <time>2025-04-12T07:52:22Z</time>
      </trkpt>
      <trkpt lat="43.64469" lon="1.37877">
        <ele>144</ele>
        <time>2025-04-12T07:52:23Z</time>
      </trkpt>
      <trkpt lat="43.64468" lon="1.37879">
        <ele>144</ele>
        <time>2025-04-12T07:52:24Z</time>
      </trkpt>
      <trkpt lat="43.64468" lon="1.37879">
        <ele>144</ele>
        <time>2025-04-12T07:52:25Z</time>
      </trkpt>
      <trkpt lat="43.64468" lon="1.37882">
        <ele>144</ele>
        <time>2025-04-12T07:52:26Z</time>
      </trkpt>
      <trkpt lat="43.64468" lon="1.37882">
        <ele>144</ele>
        <time>2025-04-12T07:52:27Z</time>
      </trkpt>
      <trkpt lat="43.64467" lon="1.37884">
        <ele>144</ele>
        <time>2025-04-12T07:52:28Z</time>
      </trkpt>
      <trkpt lat="43.64467" lon="1.37884">
        <ele>144</ele>
        <time>2025-04-12T07:52:29Z</time>
      </trkpt>
      <trkpt lat="43.64465" lon="1.37886">
        <ele>144</ele>
        <time>2025-04-12T07:52:30Z</time>
      </trkpt>
      <trkpt lat="43.64465" lon="1.37886">
        <ele>144</ele>
        <time>2025-04-12T07:52:31Z</time>
      </trkpt>
      <trkpt lat="43.64465" lon="1.37886">
        <ele>145</ele>
        <time>2025-04-12T07:52:32Z</time>
      </trkpt>
      <trkpt lat="43.64463" lon="1.37889">
        <ele>145</ele>
        <time>2025-04-12T07:52:33Z</time>
      </trkpt>
      <trkpt lat="43.64463" lon="1.37889">
        <ele>145</ele>
        <time>2025-04-12T07:52:34Z</time>
      </trkpt>
      <trkpt lat="43.64462" lon="1.37891">
        <ele>145</ele>
        <time>2025-04-12T07:52:35Z</time>
      </trkpt>
      <trkpt lat="43.64462" lon="1.37891">
        <ele>144</ele>
        <time>2025-04-12T07:52:36Z</time>
      </trkpt>
      <trkpt lat="43.6446" lon="1.37899">
        <ele>144</ele>
        <time>2025-04-12T07:52:37Z</time>
      </trkpt>
      <trkpt lat="43.64459" lon="1.37901">
        <ele>144</ele>
        <time>2025-04-12T07:52:38Z</time>
      </trkpt>
      <trkpt lat="43.64458" lon="1.37906">
        <ele>143</ele>
        <time>2025-04-12T07:52:39Z</time>
      </trkpt>
      <trkpt lat="43.64457" lon="1.37912">
        <ele>143</ele>
        <time>2025-04-12T07:52:40Z</time>
      </trkpt>
      <trkpt lat="43.64457" lon="1.37917">
        <ele>143</ele>
        <time>2025-04-12T07:52:41Z</time>
      </trkpt>
      <trkpt lat="43.64457" lon="1.37923">
        <ele>144</ele>
        <time>2025-04-12T07:52:42Z</time>
      </trkpt>
      <trkpt lat="43.64458" lon="1.37928">
        <ele>144</ele>
        <time>2025-04-12T07:52:43Z</time>
      </trkpt>
      <trkpt lat="43.6446" lon="1.37933">
        <ele>144</ele>
        <time>2025-04-12T07:52:44Z</time>
      </trkpt>
      <trkpt lat="43.64462" lon="1.37938">
        <ele>144</ele>
        <time>2025-04-12T07:52:45Z</time>
      </trkpt>
      <trkpt lat="43.64466" lon="1.37942">
        <ele>143</ele>
        <time>2025-04-12T07:52:46Z</time>
      </trkpt>
      <trkpt lat="43.64468" lon="1.37946">
        <ele>143</ele>
        <time>2025-04-12T07:52:47Z</time>
      </trkpt>
      <trkpt lat="43.64471" lon="1.37948">
        <ele>143</ele>
        <time>2025-04-12T07:52:48Z</time>
      </trkpt>
      <trkpt lat="43.64474" lon="1.37951">
        <ele>143</ele>
        <time>2025-04-12T07:52:49Z</time>
      </trkpt>
      <trkpt lat="43.64478" lon="1.37953">
        <ele>143</ele>
        <time>2025-04-12T07:52:50Z</time>
      </trkpt>
      <trkpt lat="43.64481" lon="1.37956">
        <ele>143</ele>
        <time>2025-04-12T07:52:51Z</time>
      </trkpt>
      <trkpt lat="43.64485" lon="1.37958">
        <ele>143</ele>
        <time>2025-04-12T07:52:52Z</time>
      </trkpt>
      <trkpt lat="43.64488" lon="1.3796">
        <ele>142</ele>
        <time>2025-04-12T07:52:53Z</time>
      </trkpt>
      <trkpt lat="43.64492" lon="1.37961">
        <ele>143</ele>
        <time>2025-04-12T07:52:54Z</time>
      </trkpt>
      <trkpt lat="43.64496" lon="1.37963">
        <ele>143</ele>
        <time>2025-04-12T07:52:55Z</time>
      </trkpt>
      <trkpt lat="43.64499" lon="1.37966">
        <ele>143</ele>
        <time>2025-04-12T07:52:56Z</time>
      </trkpt>
      <trkpt lat="43.64503" lon="1.37968">
        <ele>144</ele>
        <time>2025-04-12T07:52:57Z</time>
      </trkpt>
      <trkpt lat="43.64506" lon="1.37971">
        <ele>144</ele>
        <time>2025-04-12T07:52:58Z</time>
      </trkpt>
      <trkpt lat="43.6451" lon="1.37973">
        <ele>143</ele>
        <time>2025-04-12T07:52:59Z</time>
      </trkpt>
      <trkpt lat="43.64514" lon="1.37974">
        <ele>143</ele>
        <time>2025-04-12T07:53:00Z</time>
      </trkpt>
      <trkpt lat="43.64517" lon="1.37976">
        <ele>143</ele>
        <time>2025-04-12T07:53:01Z</time>
      </trkpt>
      <trkpt lat="43.64521" lon="1.37978">
        <ele>143</ele>
        <time>2025-04-12T07:53:02Z</time>
      </trkpt>
      <trkpt lat="43.64525" lon="1.3798">
        <ele>143</ele>
        <time>2025-04-12T07:53:03Z</time>
      </trkpt>
      <trkpt lat="43.64529" lon="1.37982">
        <ele>143</ele>
        <time>2025-04-12T07:53:04Z</time>
      </trkpt>
      <trkpt lat="43.64533" lon="1.37984">
        <ele>143</ele>
        <time>2025-04-12T07:53:05Z</time>
      </trkpt>
      <trkpt lat="43.64537" lon="1.37985">
        <ele>143</ele>
        <time>2025-04-12T07:53:06Z</time>
      </trkpt>
      <trkpt lat="43.64541" lon="1.37985">
        <ele>143</ele>
        <time>2025-04-12T07:53:07Z</time>
      </trkpt>
      <trkpt lat="43.64544" lon="1.37984">
        <ele>143</ele>
        <time>2025-04-12T07:53:08Z</time>
      </trkpt>
      <trkpt lat="43.64547" lon="1.37983">
        <ele>143</ele>
        <time>2025-04-12T07:53:09Z</time>
      </trkpt>
      <trkpt lat="43.64549" lon="1.37982">
        <ele>143</ele>
        <time>2025-04-12T07:53:10Z</time>
      </trkpt>
      <trkpt lat="43.64549" lon="1.37982">
        <ele>143</ele>
        <time>2025-04-12T07:53:11Z</time>
      </trkpt>
      <trkpt lat="43.64552" lon="1.37979">
        <ele>143</ele>
        <time>2025-04-12T07:53:12Z</time>
      </trkpt>
      <trkpt lat="43.64552" lon="1.37979">
        <ele>143</ele>
        <time>2025-04-12T07:53:13Z</time>
      </trkpt>
      <trkpt lat="43.64554" lon="1.37979">
        <ele>143</ele>
        <time>2025-04-12T07:53:14Z</time>
      </trkpt>
      <trkpt lat="43.64554" lon="1.37979">
        <ele>143</ele>
        <time>2025-04-12T07:53:15Z</time>
      </trkpt>
      <trkpt lat="43.64556" lon="1.37978">
        <ele>144</ele>
        <time>2025-04-12T07:53:16Z</time>
      </trkpt>
      <trkpt lat="43.64556" lon="1.37978">
        <ele>144</ele>
        <time>2025-04-12T07:53:17Z</time>
      </trkpt>
      <trkpt lat="43.64558" lon="1.37976">
        <ele>144</ele>
        <time>2025-04-12T07:53:18Z</time>
      </trkpt>
      <trkpt lat="43.64558" lon="1.37976">
        <ele>144</ele>
        <time>2025-04-12T07:53:19Z</time>
      </trkpt>
      <trkpt lat="43.6456" lon="1.37974">
        <ele>144</ele>
        <time>2025-04-12T07:53:20Z</time>
      </trkpt>
      <trkpt lat="43.6456" lon="1.37974">
        <ele>144</ele>
        <time>2025-04-12T07:53:21Z</time>
      </trkpt>
      <trkpt lat="43.6456" lon="1.37974">
        <ele>144</ele>
        <time>2025-04-12T07:53:22Z</time>
      </trkpt>
    </trkseg>
  </trk>
</gpx>